<?xml version="1.0" encoding="UTF-8" standalone="no" ?>
<gpx xmlns="http://www.topografix.com/GPX/1/1" xmlns:xsi="http://www.w3.org/2001/XMLSchema-instance" xsi:schemaLocation="http://www.topografix.com/GPX/1/1 http://www.topografix.com/GPX/1/1/gpx.xsd" version="1.1" creator="VisuGPX - https://www.visugpx.com">
  <metadata>
    <name>ChapelleE_HopitauMauves_24.5km</name>
    <desc><![CDATA[J2 le 11/01/24 24.5km. aller via la gare de Nantes puis bord de Loire. Retour de Mauves par le train]]></desc>
  </metadata>
  <trk>
    <name><![CDATA[ChapelleE_HopitauGareMauves_24.5km_20430018]]></name>
    <desc><![CDATA[J2 le 11/01/24 24.5km <p>Heure de départ: 01/11/2024 09:01<br/>Heure d'arrivée: 01/11/2024 15:13<br/>Distance: 24,3 km (05:18)<br/>Temps déplacement: 04:46<br/>Vitesse moyenne: 4,59 km/h<br/>Vitesse moyenne mouv.: 5,09 km/h<br/>Vitesse Max.: 7,05 km/h<br/>Altitude minimale: 1 m<br/>Altitude maximale: 33 m<br/>Vitesse de montée: 100,1 m/h<br/>Vitesse de descente: -93,4 m/h<br/>Gain d'altitude: 212 m<br/>Perte d'altitude: -235 m<br/>Temps de montée: 02:07<br/>Temps de descente: 02:31<br/></p><hr align="center" width="480" style="height: 2px; width: 517px"/>]]></desc>
    <extensions>
      <line xmlns="http://www.topografix.com/GPX/gpx_style/0/2">
        <color>0000FF</color>
        <width>4</width>
      </line>
    </extensions>
    <trkseg>
      <trkpt lat="47.26971" lon="-1.55224">
        <ele>30</ele>
        <time>2024-01-11T08:01:23Z</time>
      </trkpt>
      <trkpt lat="47.26952" lon="-1.55229">
        <ele>30</ele>
        <time>2024-01-11T08:01:43Z</time>
      </trkpt>
      <trkpt lat="47.26949" lon="-1.55201">
        <ele>30</ele>
        <time>2024-01-11T08:02:03Z</time>
      </trkpt>
      <trkpt lat="47.26944" lon="-1.55169">
        <ele>30</ele>
        <time>2024-01-11T08:02:23Z</time>
      </trkpt>
      <trkpt lat="47.26938" lon="-1.55141">
        <ele>29.01</ele>
        <time>2024-01-11T08:02:39Z</time>
      </trkpt>
      <trkpt lat="47.26932" lon="-1.55111">
        <ele>29</ele>
        <time>2024-01-11T08:02:55Z</time>
      </trkpt>
      <trkpt lat="47.26926" lon="-1.55081">
        <ele>27.6</ele>
        <time>2024-01-11T08:03:11Z</time>
      </trkpt>
      <trkpt lat="47.2692" lon="-1.55056">
        <ele>27</ele>
        <time>2024-01-11T08:03:27Z</time>
      </trkpt>
      <trkpt lat="47.26913" lon="-1.55024">
        <ele>25.05</ele>
        <time>2024-01-11T08:03:43Z</time>
      </trkpt>
      <trkpt lat="47.26902" lon="-1.54996">
        <ele>24.3</ele>
        <time>2024-01-11T08:03:59Z</time>
      </trkpt>
      <trkpt lat="47.26914" lon="-1.54975">
        <ele>24</ele>
        <time>2024-01-11T08:04:15Z</time>
      </trkpt>
      <trkpt lat="47.26922" lon="-1.54948">
        <ele>25.95</ele>
        <time>2024-01-11T08:04:31Z</time>
      </trkpt>
      <trkpt lat="47.26927" lon="-1.54915">
        <ele>26.7</ele>
        <time>2024-01-11T08:04:51Z</time>
      </trkpt>
      <trkpt lat="47.26921" lon="-1.54883">
        <ele>27</ele>
        <time>2024-01-11T08:05:11Z</time>
      </trkpt>
      <trkpt lat="47.26914" lon="-1.54856">
        <ele>26.09</ele>
        <time>2024-01-11T08:05:27Z</time>
      </trkpt>
      <trkpt lat="47.26908" lon="-1.54829">
        <ele>26.7</ele>
        <time>2024-01-11T08:05:43Z</time>
      </trkpt>
      <trkpt lat="47.26901" lon="-1.54801">
        <ele>27</ele>
        <time>2024-01-11T08:05:59Z</time>
      </trkpt>
      <trkpt lat="47.26895" lon="-1.54775">
        <ele>27</ele>
        <time>2024-01-11T08:06:15Z</time>
      </trkpt>
      <trkpt lat="47.26888" lon="-1.54747">
        <ele>29.1</ele>
        <time>2024-01-11T08:06:31Z</time>
      </trkpt>
      <trkpt lat="47.26881" lon="-1.54718">
        <ele>29.99</ele>
        <time>2024-01-11T08:06:47Z</time>
      </trkpt>
      <trkpt lat="47.26873" lon="-1.54689">
        <ele>30</ele>
        <time>2024-01-11T08:07:03Z</time>
      </trkpt>
      <trkpt lat="47.26868" lon="-1.5466">
        <ele>32.1</ele>
        <time>2024-01-11T08:07:19Z</time>
      </trkpt>
      <trkpt lat="47.2686" lon="-1.54629">
        <ele>33</ele>
        <time>2024-01-11T08:07:39Z</time>
      </trkpt>
      <trkpt lat="47.2687" lon="-1.54604">
        <ele>33</ele>
        <time>2024-01-11T08:07:55Z</time>
      </trkpt>
      <trkpt lat="47.26874" lon="-1.54577">
        <ele>32.3</ele>
        <time>2024-01-11T08:08:19Z</time>
      </trkpt>
      <trkpt lat="47.26857" lon="-1.54566">
        <ele>32</ele>
        <time>2024-01-11T08:08:39Z</time>
      </trkpt>
      <trkpt lat="47.26837" lon="-1.54564">
        <ele>32</ele>
        <time>2024-01-11T08:08:55Z</time>
      </trkpt>
      <trkpt lat="47.26818" lon="-1.54554">
        <ele>29.02</ele>
        <time>2024-01-11T08:09:11Z</time>
      </trkpt>
      <trkpt lat="47.26801" lon="-1.54535">
        <ele>29</ele>
        <time>2024-01-11T08:09:27Z</time>
      </trkpt>
      <trkpt lat="47.26783" lon="-1.54517">
        <ele>29</ele>
        <time>2024-01-11T08:09:43Z</time>
      </trkpt>
      <trkpt lat="47.26765" lon="-1.54503">
        <ele>29</ele>
        <time>2024-01-11T08:10:00Z</time>
      </trkpt>
      <trkpt lat="47.26748" lon="-1.54484">
        <ele>28.03</ele>
        <time>2024-01-11T08:10:20Z</time>
      </trkpt>
      <trkpt lat="47.26732" lon="-1.54469">
        <ele>28</ele>
        <time>2024-01-11T08:10:36Z</time>
      </trkpt>
      <trkpt lat="47.26714" lon="-1.54463">
        <ele>28</ele>
        <time>2024-01-11T08:10:52Z</time>
      </trkpt>
      <trkpt lat="47.26695" lon="-1.54458">
        <ele>28</ele>
        <time>2024-01-11T08:11:08Z</time>
      </trkpt>
      <trkpt lat="47.26675" lon="-1.54454">
        <ele>28</ele>
        <time>2024-01-11T08:11:24Z</time>
      </trkpt>
      <trkpt lat="47.26653" lon="-1.54456">
        <ele>25.08</ele>
        <time>2024-01-11T08:11:40Z</time>
      </trkpt>
      <trkpt lat="47.26634" lon="-1.5446">
        <ele>25</ele>
        <time>2024-01-11T08:11:56Z</time>
      </trkpt>
      <trkpt lat="47.26613" lon="-1.54465">
        <ele>25</ele>
        <time>2024-01-11T08:12:12Z</time>
      </trkpt>
      <trkpt lat="47.26593" lon="-1.54459">
        <ele>25</ele>
        <time>2024-01-11T08:12:28Z</time>
      </trkpt>
      <trkpt lat="47.26584" lon="-1.54433">
        <ele>25</ele>
        <time>2024-01-11T08:12:44Z</time>
      </trkpt>
      <trkpt lat="47.26577" lon="-1.54402">
        <ele>22.11</ele>
        <time>2024-01-11T08:13:00Z</time>
      </trkpt>
      <trkpt lat="47.2659" lon="-1.54381">
        <ele>22.91</ele>
        <time>2024-01-11T08:13:16Z</time>
      </trkpt>
      <trkpt lat="47.2661" lon="-1.5438">
        <ele>23</ele>
        <time>2024-01-11T08:13:32Z</time>
      </trkpt>
      <trkpt lat="47.2663" lon="-1.54369">
        <ele>23</ele>
        <time>2024-01-11T08:13:48Z</time>
      </trkpt>
      <trkpt lat="47.26632" lon="-1.54342">
        <ele>23</ele>
        <time>2024-01-11T08:14:04Z</time>
      </trkpt>
      <trkpt lat="47.26626" lon="-1.54311">
        <ele>21.05</ele>
        <time>2024-01-11T08:14:20Z</time>
      </trkpt>
      <trkpt lat="47.26617" lon="-1.54281">
        <ele>21</ele>
        <time>2024-01-11T08:14:36Z</time>
      </trkpt>
      <trkpt lat="47.26608" lon="-1.54256">
        <ele>21</ele>
        <time>2024-01-11T08:14:52Z</time>
      </trkpt>
      <trkpt lat="47.26597" lon="-1.54232">
        <ele>21</ele>
        <time>2024-01-11T08:15:08Z</time>
      </trkpt>
      <trkpt lat="47.26586" lon="-1.54206">
        <ele>21</ele>
        <time>2024-01-11T08:15:24Z</time>
      </trkpt>
      <trkpt lat="47.26575" lon="-1.54183">
        <ele>17.11</ele>
        <time>2024-01-11T08:15:36Z</time>
      </trkpt>
      <trkpt lat="47.26563" lon="-1.54157">
        <ele>16.09</ele>
        <time>2024-01-11T08:15:52Z</time>
      </trkpt>
      <trkpt lat="47.26551" lon="-1.54131">
        <ele>16</ele>
        <time>2024-01-11T08:16:08Z</time>
      </trkpt>
      <trkpt lat="47.26538" lon="-1.54107">
        <ele>16</ele>
        <time>2024-01-11T08:16:24Z</time>
      </trkpt>
      <trkpt lat="47.26527" lon="-1.54081">
        <ele>15.3</ele>
        <time>2024-01-11T08:16:40Z</time>
      </trkpt>
      <trkpt lat="47.26516" lon="-1.54056">
        <ele>15</ele>
        <time>2024-01-11T08:16:56Z</time>
      </trkpt>
      <trkpt lat="47.26506" lon="-1.54034">
        <ele>15</ele>
        <time>2024-01-11T08:17:16Z</time>
      </trkpt>
      <trkpt lat="47.26495" lon="-1.54008">
        <ele>10.45</ele>
        <time>2024-01-11T08:17:32Z</time>
      </trkpt>
      <trkpt lat="47.26484" lon="-1.53984">
        <ele>6.11</ele>
        <time>2024-01-11T08:17:48Z</time>
      </trkpt>
      <trkpt lat="47.26463" lon="-1.53998">
        <ele>6</ele>
        <time>2024-01-11T08:18:08Z</time>
      </trkpt>
      <trkpt lat="47.26443" lon="-1.54004">
        <ele>9.97</ele>
        <time>2024-01-11T08:18:24Z</time>
      </trkpt>
      <trkpt lat="47.26424" lon="-1.53998">
        <ele>6.36</ele>
        <time>2024-01-11T08:18:40Z</time>
      </trkpt>
      <trkpt lat="47.26402" lon="-1.53995">
        <ele>6</ele>
        <time>2024-01-11T08:19:04Z</time>
      </trkpt>
      <trkpt lat="47.26383" lon="-1.5399">
        <ele>6</ele>
        <time>2024-01-11T08:19:20Z</time>
      </trkpt>
      <trkpt lat="47.26359" lon="-1.53983">
        <ele>6</ele>
        <time>2024-01-11T08:19:40Z</time>
      </trkpt>
      <trkpt lat="47.26342" lon="-1.53975">
        <ele>6</ele>
        <time>2024-01-11T08:19:56Z</time>
      </trkpt>
      <trkpt lat="47.26324" lon="-1.53969">
        <ele>8.92</ele>
        <time>2024-01-11T08:20:12Z</time>
      </trkpt>
      <trkpt lat="47.26305" lon="-1.53955">
        <ele>9</ele>
        <time>2024-01-11T08:20:28Z</time>
      </trkpt>
      <trkpt lat="47.26289" lon="-1.53939">
        <ele>9</ele>
        <time>2024-01-11T08:20:44Z</time>
      </trkpt>
      <trkpt lat="47.26271" lon="-1.5392">
        <ele>9</ele>
        <time>2024-01-11T08:21:00Z</time>
      </trkpt>
      <trkpt lat="47.26253" lon="-1.53905">
        <ele>6.02</ele>
        <time>2024-01-11T08:21:16Z</time>
      </trkpt>
      <trkpt lat="47.26236" lon="-1.53888">
        <ele>12.98</ele>
        <time>2024-01-11T08:21:36Z</time>
      </trkpt>
      <trkpt lat="47.26218" lon="-1.53874">
        <ele>13</ele>
        <time>2024-01-11T08:21:52Z</time>
      </trkpt>
      <trkpt lat="47.262" lon="-1.53855">
        <ele>13</ele>
        <time>2024-01-11T08:22:08Z</time>
      </trkpt>
      <trkpt lat="47.2618" lon="-1.53848">
        <ele>13</ele>
        <time>2024-01-11T08:22:24Z</time>
      </trkpt>
      <trkpt lat="47.26162" lon="-1.53839">
        <ele>17.9</ele>
        <time>2024-01-11T08:22:40Z</time>
      </trkpt>
      <trkpt lat="47.26139" lon="-1.53835">
        <ele>19.98</ele>
        <time>2024-01-11T08:22:56Z</time>
      </trkpt>
      <trkpt lat="47.2612" lon="-1.53832">
        <ele>12.3</ele>
        <time>2024-01-11T08:23:12Z</time>
      </trkpt>
      <trkpt lat="47.26099" lon="-1.53839">
        <ele>19.94</ele>
        <time>2024-01-11T08:23:29Z</time>
      </trkpt>
      <trkpt lat="47.26078" lon="-1.53847">
        <ele>14.54</ele>
        <time>2024-01-11T08:23:45Z</time>
      </trkpt>
      <trkpt lat="47.26057" lon="-1.53844">
        <ele>14</ele>
        <time>2024-01-11T08:24:01Z</time>
      </trkpt>
      <trkpt lat="47.26037" lon="-1.53842">
        <ele>14</ele>
        <time>2024-01-11T08:24:17Z</time>
      </trkpt>
      <trkpt lat="47.26015" lon="-1.53841">
        <ele>14</ele>
        <time>2024-01-11T08:24:33Z</time>
      </trkpt>
      <trkpt lat="47.25997" lon="-1.53846">
        <ele>12.6</ele>
        <time>2024-01-11T08:24:49Z</time>
      </trkpt>
      <trkpt lat="47.25977" lon="-1.53852">
        <ele>12</ele>
        <time>2024-01-11T08:25:09Z</time>
      </trkpt>
      <trkpt lat="47.25958" lon="-1.53859">
        <ele>12</ele>
        <time>2024-01-11T08:25:25Z</time>
      </trkpt>
      <trkpt lat="47.25943" lon="-1.53876">
        <ele>12</ele>
        <time>2024-01-11T08:25:37Z</time>
      </trkpt>
      <trkpt lat="47.25926" lon="-1.5389">
        <ele>12</ele>
        <time>2024-01-11T08:25:49Z</time>
      </trkpt>
      <trkpt lat="47.25905" lon="-1.53901">
        <ele>10.05</ele>
        <time>2024-01-11T08:26:05Z</time>
      </trkpt>
      <trkpt lat="47.25888" lon="-1.53912">
        <ele>10</ele>
        <time>2024-01-11T08:26:21Z</time>
      </trkpt>
      <trkpt lat="47.25869" lon="-1.53923">
        <ele>14.55</ele>
        <time>2024-01-11T08:26:37Z</time>
      </trkpt>
      <trkpt lat="47.2585" lon="-1.53937">
        <ele>15</ele>
        <time>2024-01-11T08:26:53Z</time>
      </trkpt>
      <trkpt lat="47.25827" lon="-1.53947">
        <ele>13.18</ele>
        <time>2024-01-11T08:27:13Z</time>
      </trkpt>
      <trkpt lat="47.25804" lon="-1.53953">
        <ele>13</ele>
        <time>2024-01-11T08:27:29Z</time>
      </trkpt>
      <trkpt lat="47.25785" lon="-1.5396">
        <ele>13</ele>
        <time>2024-01-11T08:27:45Z</time>
      </trkpt>
      <trkpt lat="47.25765" lon="-1.53964">
        <ele>13</ele>
        <time>2024-01-11T08:28:01Z</time>
      </trkpt>
      <trkpt lat="47.25745" lon="-1.53946">
        <ele>12.09</ele>
        <time>2024-01-11T08:28:17Z</time>
      </trkpt>
      <trkpt lat="47.25731" lon="-1.53925">
        <ele>12</ele>
        <time>2024-01-11T08:28:33Z</time>
      </trkpt>
      <trkpt lat="47.25713" lon="-1.53909">
        <ele>7.14</ele>
        <time>2024-01-11T08:28:49Z</time>
      </trkpt>
      <trkpt lat="47.25691" lon="-1.53917">
        <ele>10.5</ele>
        <time>2024-01-11T08:29:05Z</time>
      </trkpt>
      <trkpt lat="47.2567" lon="-1.53927">
        <ele>12</ele>
        <time>2024-01-11T08:29:25Z</time>
      </trkpt>
      <trkpt lat="47.25649" lon="-1.53935">
        <ele>12.99</ele>
        <time>2024-01-11T08:29:41Z</time>
      </trkpt>
      <trkpt lat="47.25629" lon="-1.53937">
        <ele>13</ele>
        <time>2024-01-11T08:30:01Z</time>
      </trkpt>
      <trkpt lat="47.25611" lon="-1.53951">
        <ele>13</ele>
        <time>2024-01-11T08:30:13Z</time>
      </trkpt>
      <trkpt lat="47.25584" lon="-1.53953">
        <ele>13</ele>
        <time>2024-01-11T08:30:33Z</time>
      </trkpt>
      <trkpt lat="47.2557" lon="-1.5397">
        <ele>12.03</ele>
        <time>2024-01-11T08:30:45Z</time>
      </trkpt>
      <trkpt lat="47.25553" lon="-1.53982">
        <ele>12</ele>
        <time>2024-01-11T08:31:01Z</time>
      </trkpt>
      <trkpt lat="47.25532" lon="-1.53992">
        <ele>12</ele>
        <time>2024-01-11T08:31:21Z</time>
      </trkpt>
      <trkpt lat="47.25514" lon="-1.54007">
        <ele>18.81</ele>
        <time>2024-01-11T08:31:41Z</time>
      </trkpt>
      <trkpt lat="47.25493" lon="-1.54005">
        <ele>12.7</ele>
        <time>2024-01-11T08:31:57Z</time>
      </trkpt>
      <trkpt lat="47.25471" lon="-1.54004">
        <ele>10.02</ele>
        <time>2024-01-11T08:32:13Z</time>
      </trkpt>
      <trkpt lat="47.25448" lon="-1.54004">
        <ele>10</ele>
        <time>2024-01-11T08:32:29Z</time>
      </trkpt>
      <trkpt lat="47.25429" lon="-1.5401">
        <ele>10</ele>
        <time>2024-01-11T08:32:45Z</time>
      </trkpt>
      <trkpt lat="47.25405" lon="-1.54017">
        <ele>9.09</ele>
        <time>2024-01-11T08:33:01Z</time>
      </trkpt>
      <trkpt lat="47.25388" lon="-1.54022">
        <ele>9</ele>
        <time>2024-01-11T08:33:13Z</time>
      </trkpt>
      <trkpt lat="47.25368" lon="-1.54029">
        <ele>9</ele>
        <time>2024-01-11T08:33:29Z</time>
      </trkpt>
      <trkpt lat="47.25345" lon="-1.54034">
        <ele>9</ele>
        <time>2024-01-11T08:33:45Z</time>
      </trkpt>
      <trkpt lat="47.25327" lon="-1.54028">
        <ele>9.91</ele>
        <time>2024-01-11T08:34:01Z</time>
      </trkpt>
      <trkpt lat="47.25307" lon="-1.54032">
        <ele>10</ele>
        <time>2024-01-11T08:34:17Z</time>
      </trkpt>
      <trkpt lat="47.25287" lon="-1.54037">
        <ele>10</ele>
        <time>2024-01-11T08:34:33Z</time>
      </trkpt>
      <trkpt lat="47.25268" lon="-1.54043">
        <ele>10</ele>
        <time>2024-01-11T08:34:49Z</time>
      </trkpt>
      <trkpt lat="47.25248" lon="-1.54045">
        <ele>7.9</ele>
        <time>2024-01-11T08:35:05Z</time>
      </trkpt>
      <trkpt lat="47.25227" lon="-1.54052">
        <ele>7.01</ele>
        <time>2024-01-11T08:35:21Z</time>
      </trkpt>
      <trkpt lat="47.25205" lon="-1.54058">
        <ele>7</ele>
        <time>2024-01-11T08:35:37Z</time>
      </trkpt>
      <trkpt lat="47.25184" lon="-1.54063">
        <ele>7</ele>
        <time>2024-01-11T08:35:53Z</time>
      </trkpt>
      <trkpt lat="47.25162" lon="-1.5407">
        <ele>4.9</ele>
        <time>2024-01-11T08:36:13Z</time>
      </trkpt>
      <trkpt lat="47.25142" lon="-1.54078">
        <ele>4.01</ele>
        <time>2024-01-11T08:36:29Z</time>
      </trkpt>
      <trkpt lat="47.25128" lon="-1.54099">
        <ele>11.78</ele>
        <time>2024-01-11T08:36:45Z</time>
      </trkpt>
      <trkpt lat="47.2511" lon="-1.54116">
        <ele>12</ele>
        <time>2024-01-11T08:37:01Z</time>
      </trkpt>
      <trkpt lat="47.25093" lon="-1.54125">
        <ele>12</ele>
        <time>2024-01-11T08:37:17Z</time>
      </trkpt>
      <trkpt lat="47.25074" lon="-1.54142">
        <ele>9.27</ele>
        <time>2024-01-11T08:37:33Z</time>
      </trkpt>
      <trkpt lat="47.25057" lon="-1.54162">
        <ele>9</ele>
        <time>2024-01-11T08:37:53Z</time>
      </trkpt>
      <trkpt lat="47.25043" lon="-1.5418">
        <ele>13.87</ele>
        <time>2024-01-11T08:38:09Z</time>
      </trkpt>
      <trkpt lat="47.25028" lon="-1.542">
        <ele>14</ele>
        <time>2024-01-11T08:38:25Z</time>
      </trkpt>
      <trkpt lat="47.25013" lon="-1.54217">
        <ele>14</ele>
        <time>2024-01-11T08:38:41Z</time>
      </trkpt>
      <trkpt lat="47.24997" lon="-1.54235">
        <ele>9.45</ele>
        <time>2024-01-11T08:38:57Z</time>
      </trkpt>
      <trkpt lat="47.24981" lon="-1.54252">
        <ele>11.1</ele>
        <time>2024-01-11T08:39:13Z</time>
      </trkpt>
      <trkpt lat="47.24964" lon="-1.54274">
        <ele>11.99</ele>
        <time>2024-01-11T08:39:29Z</time>
      </trkpt>
      <trkpt lat="47.24952" lon="-1.543">
        <ele>12</ele>
        <time>2024-01-11T08:39:45Z</time>
      </trkpt>
      <trkpt lat="47.24934" lon="-1.54318">
        <ele>12</ele>
        <time>2024-01-11T08:40:01Z</time>
      </trkpt>
      <trkpt lat="47.24917" lon="-1.54338">
        <ele>16.2</ele>
        <time>2024-01-11T08:40:17Z</time>
      </trkpt>
      <trkpt lat="47.24898" lon="-1.54356">
        <ele>17.99</ele>
        <time>2024-01-11T08:40:33Z</time>
      </trkpt>
      <trkpt lat="47.24882" lon="-1.54377">
        <ele>18</ele>
        <time>2024-01-11T08:40:49Z</time>
      </trkpt>
      <trkpt lat="47.24864" lon="-1.54397">
        <ele>18</ele>
        <time>2024-01-11T08:41:05Z</time>
      </trkpt>
      <trkpt lat="47.24847" lon="-1.54414">
        <ele>18</ele>
        <time>2024-01-11T08:41:21Z</time>
      </trkpt>
      <trkpt lat="47.24833" lon="-1.54432">
        <ele>19.93</ele>
        <time>2024-01-11T08:41:37Z</time>
      </trkpt>
      <trkpt lat="47.24817" lon="-1.54451">
        <ele>17.02</ele>
        <time>2024-01-11T08:41:53Z</time>
      </trkpt>
      <trkpt lat="47.24802" lon="-1.54466">
        <ele>17</ele>
        <time>2024-01-11T08:42:09Z</time>
      </trkpt>
      <trkpt lat="47.24786" lon="-1.54481">
        <ele>17</ele>
        <time>2024-01-11T08:42:25Z</time>
      </trkpt>
      <trkpt lat="47.24772" lon="-1.54503">
        <ele>19.1</ele>
        <time>2024-01-11T08:42:45Z</time>
      </trkpt>
      <trkpt lat="47.24756" lon="-1.54518">
        <ele>19.99</ele>
        <time>2024-01-11T08:43:01Z</time>
      </trkpt>
      <trkpt lat="47.2474" lon="-1.54539">
        <ele>12.22</ele>
        <time>2024-01-11T08:43:17Z</time>
      </trkpt>
      <trkpt lat="47.24722" lon="-1.5455">
        <ele>12</ele>
        <time>2024-01-11T08:43:33Z</time>
      </trkpt>
      <trkpt lat="47.24704" lon="-1.54562">
        <ele>12</ele>
        <time>2024-01-11T08:43:49Z</time>
      </trkpt>
      <trkpt lat="47.24685" lon="-1.54572">
        <ele>12</ele>
        <time>2024-01-11T08:44:09Z</time>
      </trkpt>
      <trkpt lat="47.24669" lon="-1.54584">
        <ele>13.4</ele>
        <time>2024-01-11T08:44:21Z</time>
      </trkpt>
      <trkpt lat="47.24647" lon="-1.54592">
        <ele>13</ele>
        <time>2024-01-11T08:44:38Z</time>
      </trkpt>
      <trkpt lat="47.24628" lon="-1.54604">
        <ele>13</ele>
        <time>2024-01-11T08:44:54Z</time>
      </trkpt>
      <trkpt lat="47.24607" lon="-1.54608">
        <ele>13</ele>
        <time>2024-01-11T08:45:10Z</time>
      </trkpt>
      <trkpt lat="47.24587" lon="-1.5461">
        <ele>13</ele>
        <time>2024-01-11T08:45:26Z</time>
      </trkpt>
      <trkpt lat="47.24564" lon="-1.54616">
        <ele>16.97</ele>
        <time>2024-01-11T08:45:42Z</time>
      </trkpt>
      <trkpt lat="47.24543" lon="-1.54626">
        <ele>17</ele>
        <time>2024-01-11T08:45:58Z</time>
      </trkpt>
      <trkpt lat="47.24519" lon="-1.54635">
        <ele>17</ele>
        <time>2024-01-11T08:46:14Z</time>
      </trkpt>
      <trkpt lat="47.24501" lon="-1.54645">
        <ele>17</ele>
        <time>2024-01-11T08:46:30Z</time>
      </trkpt>
      <trkpt lat="47.24484" lon="-1.54659">
        <ele>15.02</ele>
        <time>2024-01-11T08:46:46Z</time>
      </trkpt>
      <trkpt lat="47.24467" lon="-1.54673">
        <ele>21.37</ele>
        <time>2024-01-11T08:46:58Z</time>
      </trkpt>
      <trkpt lat="47.24449" lon="-1.54683">
        <ele>21.99</ele>
        <time>2024-01-11T08:47:14Z</time>
      </trkpt>
      <trkpt lat="47.24431" lon="-1.54691">
        <ele>22</ele>
        <time>2024-01-11T08:47:30Z</time>
      </trkpt>
      <trkpt lat="47.24412" lon="-1.54702">
        <ele>23.4</ele>
        <time>2024-01-11T08:47:46Z</time>
      </trkpt>
      <trkpt lat="47.24395" lon="-1.54713">
        <ele>23.98</ele>
        <time>2024-01-11T08:47:59Z</time>
      </trkpt>
      <trkpt lat="47.24378" lon="-1.54724">
        <ele>24</ele>
        <time>2024-01-11T08:48:15Z</time>
      </trkpt>
      <trkpt lat="47.24362" lon="-1.54745">
        <ele>24</ele>
        <time>2024-01-11T08:48:35Z</time>
      </trkpt>
      <trkpt lat="47.24345" lon="-1.54759">
        <ele>24</ele>
        <time>2024-01-11T08:48:51Z</time>
      </trkpt>
      <trkpt lat="47.24334" lon="-1.5478">
        <ele>24</ele>
        <time>2024-01-11T08:49:39Z</time>
      </trkpt>
      <trkpt lat="47.24313" lon="-1.54798">
        <ele>16</ele>
        <time>2024-01-11T08:50:59Z</time>
      </trkpt>
      <trkpt lat="47.24292" lon="-1.54804">
        <ele>16</ele>
        <time>2024-01-11T08:51:15Z</time>
      </trkpt>
      <trkpt lat="47.24271" lon="-1.54812">
        <ele>16</ele>
        <time>2024-01-11T08:51:31Z</time>
      </trkpt>
      <trkpt lat="47.24254" lon="-1.5482">
        <ele>16</ele>
        <time>2024-01-11T08:51:55Z</time>
      </trkpt>
      <trkpt lat="47.24236" lon="-1.54825">
        <ele>11.04</ele>
        <time>2024-01-11T08:52:15Z</time>
      </trkpt>
      <trkpt lat="47.24214" lon="-1.54816">
        <ele>11</ele>
        <time>2024-01-11T08:52:31Z</time>
      </trkpt>
      <trkpt lat="47.24196" lon="-1.54799">
        <ele>11</ele>
        <time>2024-01-11T08:52:47Z</time>
      </trkpt>
      <trkpt lat="47.24174" lon="-1.54791">
        <ele>11</ele>
        <time>2024-01-11T08:53:03Z</time>
      </trkpt>
      <trkpt lat="47.24155" lon="-1.54793">
        <ele>17.81</ele>
        <time>2024-01-11T08:53:19Z</time>
      </trkpt>
      <trkpt lat="47.24133" lon="-1.54797">
        <ele>18</ele>
        <time>2024-01-11T08:53:35Z</time>
      </trkpt>
      <trkpt lat="47.24112" lon="-1.54801">
        <ele>18</ele>
        <time>2024-01-11T08:53:51Z</time>
      </trkpt>
      <trkpt lat="47.24097" lon="-1.54816">
        <ele>18</ele>
        <time>2024-01-11T08:54:07Z</time>
      </trkpt>
      <trkpt lat="47.24081" lon="-1.54831">
        <ele>15.2</ele>
        <time>2024-01-11T08:54:23Z</time>
      </trkpt>
      <trkpt lat="47.24064" lon="-1.54846">
        <ele>22.94</ele>
        <time>2024-01-11T08:54:39Z</time>
      </trkpt>
      <trkpt lat="47.24048" lon="-1.54863">
        <ele>23</ele>
        <time>2024-01-11T08:54:55Z</time>
      </trkpt>
      <trkpt lat="47.24034" lon="-1.54886">
        <ele>23</ele>
        <time>2024-01-11T08:55:11Z</time>
      </trkpt>
      <trkpt lat="47.24018" lon="-1.54907">
        <ele>23</ele>
        <time>2024-01-11T08:55:31Z</time>
      </trkpt>
      <trkpt lat="47.24005" lon="-1.54931">
        <ele>33.7</ele>
        <time>2024-01-11T08:55:47Z</time>
      </trkpt>
      <trkpt lat="47.23987" lon="-1.5495">
        <ele>25.24</ele>
        <time>2024-01-11T08:56:03Z</time>
      </trkpt>
      <trkpt lat="47.23971" lon="-1.5497">
        <ele>25</ele>
        <time>2024-01-11T08:56:19Z</time>
      </trkpt>
      <trkpt lat="47.23955" lon="-1.54987">
        <ele>25</ele>
        <time>2024-01-11T08:56:35Z</time>
      </trkpt>
      <trkpt lat="47.23937" lon="-1.55002">
        <ele>27.1</ele>
        <time>2024-01-11T08:56:51Z</time>
      </trkpt>
      <trkpt lat="47.23917" lon="-1.55012">
        <ele>28</ele>
        <time>2024-01-11T08:57:11Z</time>
      </trkpt>
      <trkpt lat="47.23897" lon="-1.55009">
        <ele>14.11</ele>
        <time>2024-01-11T08:57:27Z</time>
      </trkpt>
      <trkpt lat="47.23878" lon="-1.55012">
        <ele>14</ele>
        <time>2024-01-11T08:57:43Z</time>
      </trkpt>
      <trkpt lat="47.23861" lon="-1.55027">
        <ele>14</ele>
        <time>2024-01-11T08:58:03Z</time>
      </trkpt>
      <trkpt lat="47.23843" lon="-1.55051">
        <ele>14</ele>
        <time>2024-01-11T08:58:19Z</time>
      </trkpt>
      <trkpt lat="47.23831" lon="-1.55077">
        <ele>11.9</ele>
        <time>2024-01-11T08:58:39Z</time>
      </trkpt>
      <trkpt lat="47.23811" lon="-1.55081">
        <ele>11</ele>
        <time>2024-01-11T08:58:59Z</time>
      </trkpt>
      <trkpt lat="47.2379" lon="-1.55078">
        <ele>11</ele>
        <time>2024-01-11T08:59:32Z</time>
      </trkpt>
      <trkpt lat="47.23779" lon="-1.55104">
        <ele>13.92</ele>
        <time>2024-01-11T08:59:48Z</time>
      </trkpt>
      <trkpt lat="47.23768" lon="-1.55133">
        <ele>14</ele>
        <time>2024-01-11T09:00:04Z</time>
      </trkpt>
      <trkpt lat="47.23759" lon="-1.5516">
        <ele>14</ele>
        <time>2024-01-11T09:00:24Z</time>
      </trkpt>
      <trkpt lat="47.23737" lon="-1.55163">
        <ele>14</ele>
        <time>2024-01-11T09:00:44Z</time>
      </trkpt>
      <trkpt lat="47.23724" lon="-1.55143">
        <ele>14</ele>
        <time>2024-01-11T09:01:00Z</time>
      </trkpt>
      <trkpt lat="47.23717" lon="-1.55118">
        <ele>14</ele>
        <time>2024-01-11T09:01:12Z</time>
      </trkpt>
      <trkpt lat="47.23711" lon="-1.55091">
        <ele>14</ele>
        <time>2024-01-11T09:01:28Z</time>
      </trkpt>
      <trkpt lat="47.23695" lon="-1.5508">
        <ele>9.45</ele>
        <time>2024-01-11T09:01:44Z</time>
      </trkpt>
      <trkpt lat="47.23675" lon="-1.55071">
        <ele>9</ele>
        <time>2024-01-11T09:02:00Z</time>
      </trkpt>
      <trkpt lat="47.23657" lon="-1.55057">
        <ele>7.18</ele>
        <time>2024-01-11T09:02:16Z</time>
      </trkpt>
      <trkpt lat="47.23635" lon="-1.55054">
        <ele>7</ele>
        <time>2024-01-11T09:02:36Z</time>
      </trkpt>
      <trkpt lat="47.23615" lon="-1.55042">
        <ele>7</ele>
        <time>2024-01-11T09:02:52Z</time>
      </trkpt>
      <trkpt lat="47.23603" lon="-1.55019">
        <ele>7</ele>
        <time>2024-01-11T09:03:08Z</time>
      </trkpt>
      <trkpt lat="47.23589" lon="-1.54997">
        <ele>5.6</ele>
        <time>2024-01-11T09:03:24Z</time>
      </trkpt>
      <trkpt lat="47.23575" lon="-1.54974">
        <ele>9.96</ele>
        <time>2024-01-11T09:04:08Z</time>
      </trkpt>
      <trkpt lat="47.23562" lon="-1.54952">
        <ele>10</ele>
        <time>2024-01-11T09:04:24Z</time>
      </trkpt>
      <trkpt lat="47.23548" lon="-1.54928">
        <ele>10</ele>
        <time>2024-01-11T09:04:44Z</time>
      </trkpt>
      <trkpt lat="47.23529" lon="-1.54911">
        <ele>8.18</ele>
        <time>2024-01-11T09:05:00Z</time>
      </trkpt>
      <trkpt lat="47.23506" lon="-1.54903">
        <ele>8</ele>
        <time>2024-01-11T09:05:16Z</time>
      </trkpt>
      <trkpt lat="47.23487" lon="-1.54907">
        <ele>11.89</ele>
        <time>2024-01-11T09:05:28Z</time>
      </trkpt>
      <trkpt lat="47.23469" lon="-1.54901">
        <ele>12</ele>
        <time>2024-01-11T09:05:40Z</time>
      </trkpt>
      <trkpt lat="47.23449" lon="-1.54897">
        <ele>12</ele>
        <time>2024-01-11T09:05:56Z</time>
      </trkpt>
      <trkpt lat="47.23427" lon="-1.54892">
        <ele>12</ele>
        <time>2024-01-11T09:06:16Z</time>
      </trkpt>
      <trkpt lat="47.23406" lon="-1.5489">
        <ele>11.09</ele>
        <time>2024-01-11T09:06:32Z</time>
      </trkpt>
      <trkpt lat="47.23385" lon="-1.54889">
        <ele>11</ele>
        <time>2024-01-11T09:06:48Z</time>
      </trkpt>
      <trkpt lat="47.23364" lon="-1.54889">
        <ele>11</ele>
        <time>2024-01-11T09:07:04Z</time>
      </trkpt>
      <trkpt lat="47.23343" lon="-1.54882">
        <ele>11</ele>
        <time>2024-01-11T09:07:20Z</time>
      </trkpt>
      <trkpt lat="47.23324" lon="-1.54873">
        <ele>10.09</ele>
        <time>2024-01-11T09:07:36Z</time>
      </trkpt>
      <trkpt lat="47.23302" lon="-1.54871">
        <ele>10</ele>
        <time>2024-01-11T09:07:52Z</time>
      </trkpt>
      <trkpt lat="47.23277" lon="-1.54874">
        <ele>10</ele>
        <time>2024-01-11T09:08:09Z</time>
      </trkpt>
      <trkpt lat="47.23256" lon="-1.54882">
        <ele>10</ele>
        <time>2024-01-11T09:08:25Z</time>
      </trkpt>
      <trkpt lat="47.23234" lon="-1.54885">
        <ele>10.97</ele>
        <time>2024-01-11T09:08:41Z</time>
      </trkpt>
      <trkpt lat="47.23216" lon="-1.54899">
        <ele>11</ele>
        <time>2024-01-11T09:08:57Z</time>
      </trkpt>
      <trkpt lat="47.232" lon="-1.54912">
        <ele>11</ele>
        <time>2024-01-11T09:09:09Z</time>
      </trkpt>
      <trkpt lat="47.23179" lon="-1.54922">
        <ele>14.64</ele>
        <time>2024-01-11T09:09:25Z</time>
      </trkpt>
      <trkpt lat="47.23162" lon="-1.54943">
        <ele>11.36</ele>
        <time>2024-01-11T09:09:41Z</time>
      </trkpt>
      <trkpt lat="47.23145" lon="-1.5496">
        <ele>11</ele>
        <time>2024-01-11T09:09:57Z</time>
      </trkpt>
      <trkpt lat="47.23126" lon="-1.54976">
        <ele>11</ele>
        <time>2024-01-11T09:10:13Z</time>
      </trkpt>
      <trkpt lat="47.23111" lon="-1.54998">
        <ele>11</ele>
        <time>2024-01-11T09:10:29Z</time>
      </trkpt>
      <trkpt lat="47.23096" lon="-1.55013">
        <ele>17.81</ele>
        <time>2024-01-11T09:10:41Z</time>
      </trkpt>
      <trkpt lat="47.2308" lon="-1.55032">
        <ele>13.1</ele>
        <time>2024-01-11T09:10:57Z</time>
      </trkpt>
      <trkpt lat="47.23062" lon="-1.55052">
        <ele>11.02</ele>
        <time>2024-01-11T09:11:13Z</time>
      </trkpt>
      <trkpt lat="47.23044" lon="-1.55069">
        <ele>11</ele>
        <time>2024-01-11T09:11:29Z</time>
      </trkpt>
      <trkpt lat="47.23028" lon="-1.55092">
        <ele>17.37</ele>
        <time>2024-01-11T09:11:45Z</time>
      </trkpt>
      <trkpt lat="47.23013" lon="-1.5511">
        <ele>17.99</ele>
        <time>2024-01-11T09:12:01Z</time>
      </trkpt>
      <trkpt lat="47.22996" lon="-1.55125">
        <ele>12.4</ele>
        <time>2024-01-11T09:12:17Z</time>
      </trkpt>
      <trkpt lat="47.22982" lon="-1.55144">
        <ele>10.02</ele>
        <time>2024-01-11T09:12:33Z</time>
      </trkpt>
      <trkpt lat="47.22967" lon="-1.55165">
        <ele>10</ele>
        <time>2024-01-11T09:12:49Z</time>
      </trkpt>
      <trkpt lat="47.22951" lon="-1.55186">
        <ele>16.94</ele>
        <time>2024-01-11T09:13:05Z</time>
      </trkpt>
      <trkpt lat="47.22935" lon="-1.55205">
        <ele>17</ele>
        <time>2024-01-11T09:13:21Z</time>
      </trkpt>
      <trkpt lat="47.22918" lon="-1.55222">
        <ele>17</ele>
        <time>2024-01-11T09:13:37Z</time>
      </trkpt>
      <trkpt lat="47.22901" lon="-1.55241">
        <ele>11.05</ele>
        <time>2024-01-11T09:13:53Z</time>
      </trkpt>
      <trkpt lat="47.22885" lon="-1.5526">
        <ele>12.95</ele>
        <time>2024-01-11T09:14:09Z</time>
      </trkpt>
      <trkpt lat="47.22868" lon="-1.5528">
        <ele>13</ele>
        <time>2024-01-11T09:14:25Z</time>
      </trkpt>
      <trkpt lat="47.22854" lon="-1.55301">
        <ele>13</ele>
        <time>2024-01-11T09:14:41Z</time>
      </trkpt>
      <trkpt lat="47.22836" lon="-1.55323">
        <ele>13</ele>
        <time>2024-01-11T09:14:57Z</time>
      </trkpt>
      <trkpt lat="47.22823" lon="-1.55344">
        <ele>10.08</ele>
        <time>2024-01-11T09:15:13Z</time>
      </trkpt>
      <trkpt lat="47.22806" lon="-1.55365">
        <ele>10</ele>
        <time>2024-01-11T09:15:29Z</time>
      </trkpt>
      <trkpt lat="47.2279" lon="-1.55386">
        <ele>10</ele>
        <time>2024-01-11T09:15:45Z</time>
      </trkpt>
      <trkpt lat="47.22773" lon="-1.55405">
        <ele>10</ele>
        <time>2024-01-11T09:16:01Z</time>
      </trkpt>
      <trkpt lat="47.22759" lon="-1.55421">
        <ele>8.18</ele>
        <time>2024-01-11T09:16:17Z</time>
      </trkpt>
      <trkpt lat="47.22749" lon="-1.55444">
        <ele>8</ele>
        <time>2024-01-11T09:16:33Z</time>
      </trkpt>
      <trkpt lat="47.22735" lon="-1.55465">
        <ele>8</ele>
        <time>2024-01-11T09:16:49Z</time>
      </trkpt>
      <trkpt lat="47.22723" lon="-1.55493">
        <ele>8</ele>
        <time>2024-01-11T09:17:09Z</time>
      </trkpt>
      <trkpt lat="47.22707" lon="-1.55515">
        <ele>8.99</ele>
        <time>2024-01-11T09:17:25Z</time>
      </trkpt>
      <trkpt lat="47.22693" lon="-1.55532">
        <ele>9</ele>
        <time>2024-01-11T09:17:41Z</time>
      </trkpt>
      <trkpt lat="47.22678" lon="-1.55509">
        <ele>9</ele>
        <time>2024-01-11T09:18:05Z</time>
      </trkpt>
      <trkpt lat="47.22665" lon="-1.55488">
        <ele>6.63</ele>
        <time>2024-01-11T09:18:21Z</time>
      </trkpt>
      <trkpt lat="47.22648" lon="-1.55473">
        <ele>6</ele>
        <time>2024-01-11T09:18:41Z</time>
      </trkpt>
      <trkpt lat="47.22626" lon="-1.55476">
        <ele>6</ele>
        <time>2024-01-11T09:18:57Z</time>
      </trkpt>
      <trkpt lat="47.22607" lon="-1.55473">
        <ele>6</ele>
        <time>2024-01-11T09:19:09Z</time>
      </trkpt>
      <trkpt lat="47.22588" lon="-1.55471">
        <ele>6</ele>
        <time>2024-01-11T09:19:25Z</time>
      </trkpt>
      <trkpt lat="47.22577" lon="-1.55448">
        <ele>8.92</ele>
        <time>2024-01-11T09:19:41Z</time>
      </trkpt>
      <trkpt lat="47.2256" lon="-1.55429">
        <ele>9</ele>
        <time>2024-01-11T09:20:01Z</time>
      </trkpt>
      <trkpt lat="47.22545" lon="-1.5541">
        <ele>8.09</ele>
        <time>2024-01-11T09:20:29Z</time>
      </trkpt>
      <trkpt lat="47.22532" lon="-1.5539">
        <ele>8</ele>
        <time>2024-01-11T09:20:53Z</time>
      </trkpt>
      <trkpt lat="47.22514" lon="-1.55385">
        <ele>8</ele>
        <time>2024-01-11T09:22:38Z</time>
      </trkpt>
      <trkpt lat="47.22495" lon="-1.5538">
        <ele>7.09</ele>
        <time>2024-01-11T09:22:58Z</time>
      </trkpt>
      <trkpt lat="47.22475" lon="-1.55379">
        <ele>7</ele>
        <time>2024-01-11T09:24:06Z</time>
      </trkpt>
      <trkpt lat="47.22457" lon="-1.55376">
        <ele>7</ele>
        <time>2024-01-11T09:25:46Z</time>
      </trkpt>
      <trkpt lat="47.22436" lon="-1.55363">
        <ele>7</ele>
        <time>2024-01-11T09:26:58Z</time>
      </trkpt>
      <trkpt lat="47.22418" lon="-1.55358">
        <ele>7</ele>
        <time>2024-01-11T09:27:14Z</time>
      </trkpt>
      <trkpt lat="47.22397" lon="-1.55349">
        <ele>9.99</ele>
        <time>2024-01-11T09:27:34Z</time>
      </trkpt>
      <trkpt lat="47.22378" lon="-1.55343">
        <ele>10</ele>
        <time>2024-01-11T09:27:50Z</time>
      </trkpt>
      <trkpt lat="47.22359" lon="-1.55336">
        <ele>10</ele>
        <time>2024-01-11T09:28:10Z</time>
      </trkpt>
      <trkpt lat="47.22339" lon="-1.55332">
        <ele>9.03</ele>
        <time>2024-01-11T09:28:26Z</time>
      </trkpt>
      <trkpt lat="47.22321" lon="-1.55328">
        <ele>4.14</ele>
        <time>2024-01-11T09:28:42Z</time>
      </trkpt>
      <trkpt lat="47.22302" lon="-1.55329">
        <ele>4</ele>
        <time>2024-01-11T09:28:58Z</time>
      </trkpt>
      <trkpt lat="47.22285" lon="-1.55316">
        <ele>4</ele>
        <time>2024-01-11T09:29:23Z</time>
      </trkpt>
      <trkpt lat="47.22287" lon="-1.5529">
        <ele>4</ele>
        <time>2024-01-11T09:29:39Z</time>
      </trkpt>
      <trkpt lat="47.2229" lon="-1.55263">
        <ele>4</ele>
        <time>2024-01-11T09:29:55Z</time>
      </trkpt>
      <trkpt lat="47.22278" lon="-1.55238">
        <ele>5.95</ele>
        <time>2024-01-11T09:30:15Z</time>
      </trkpt>
      <trkpt lat="47.22261" lon="-1.55222">
        <ele>6</ele>
        <time>2024-01-11T09:30:31Z</time>
      </trkpt>
      <trkpt lat="47.22242" lon="-1.55211">
        <ele>9.89</ele>
        <time>2024-01-11T09:30:51Z</time>
      </trkpt>
      <trkpt lat="47.22225" lon="-1.55199">
        <ele>10</ele>
        <time>2024-01-11T09:31:07Z</time>
      </trkpt>
      <trkpt lat="47.2221" lon="-1.55185">
        <ele>10</ele>
        <time>2024-01-11T09:31:23Z</time>
      </trkpt>
      <trkpt lat="47.2219" lon="-1.55171">
        <ele>10</ele>
        <time>2024-01-11T09:31:43Z</time>
      </trkpt>
      <trkpt lat="47.22172" lon="-1.55159">
        <ele>11.98</ele>
        <time>2024-01-11T09:32:03Z</time>
      </trkpt>
      <trkpt lat="47.22161" lon="-1.55136">
        <ele>12.97</ele>
        <time>2024-01-11T09:32:19Z</time>
      </trkpt>
      <trkpt lat="47.22148" lon="-1.55117">
        <ele>13</ele>
        <time>2024-01-11T09:32:43Z</time>
      </trkpt>
      <trkpt lat="47.22133" lon="-1.55103">
        <ele>13</ele>
        <time>2024-01-11T09:33:03Z</time>
      </trkpt>
      <trkpt lat="47.22116" lon="-1.5509">
        <ele>13</ele>
        <time>2024-01-11T09:33:19Z</time>
      </trkpt>
      <trkpt lat="47.22097" lon="-1.55074">
        <ele>17.86</ele>
        <time>2024-01-11T09:33:35Z</time>
      </trkpt>
      <trkpt lat="47.22079" lon="-1.5506">
        <ele>20.73</ele>
        <time>2024-01-11T09:33:51Z</time>
      </trkpt>
      <trkpt lat="47.22062" lon="-1.55044">
        <ele>21</ele>
        <time>2024-01-11T09:34:07Z</time>
      </trkpt>
      <trkpt lat="47.22045" lon="-1.55033">
        <ele>21</ele>
        <time>2024-01-11T09:34:24Z</time>
      </trkpt>
      <trkpt lat="47.22025" lon="-1.55015">
        <ele>21</ele>
        <time>2024-01-11T09:34:40Z</time>
      </trkpt>
      <trkpt lat="47.22007" lon="-1.55001">
        <ele>21</ele>
        <time>2024-01-11T09:34:56Z</time>
      </trkpt>
      <trkpt lat="47.21992" lon="-1.54985">
        <ele>21.02</ele>
        <time>2024-01-11T09:35:12Z</time>
      </trkpt>
      <trkpt lat="47.21985" lon="-1.54955">
        <ele>21</ele>
        <time>2024-01-11T09:35:48Z</time>
      </trkpt>
      <trkpt lat="47.21968" lon="-1.54941">
        <ele>21</ele>
        <time>2024-01-11T09:36:16Z</time>
      </trkpt>
      <trkpt lat="47.21953" lon="-1.54926">
        <ele>21</ele>
        <time>2024-01-11T09:36:44Z</time>
      </trkpt>
      <trkpt lat="47.21934" lon="-1.54912">
        <ele>24.64</ele>
        <time>2024-01-11T09:37:04Z</time>
      </trkpt>
      <trkpt lat="47.21915" lon="-1.54894">
        <ele>24.3</ele>
        <time>2024-01-11T09:37:24Z</time>
      </trkpt>
      <trkpt lat="47.21895" lon="-1.5488">
        <ele>24</ele>
        <time>2024-01-11T09:37:40Z</time>
      </trkpt>
      <trkpt lat="47.21879" lon="-1.54865">
        <ele>24</ele>
        <time>2024-01-11T09:37:56Z</time>
      </trkpt>
      <trkpt lat="47.21861" lon="-1.54852">
        <ele>24</ele>
        <time>2024-01-11T09:38:12Z</time>
      </trkpt>
      <trkpt lat="47.21842" lon="-1.5485">
        <ele>24</ele>
        <time>2024-01-11T09:38:28Z</time>
      </trkpt>
      <trkpt lat="47.21823" lon="-1.54838">
        <ele>21.27</ele>
        <time>2024-01-11T09:38:44Z</time>
      </trkpt>
      <trkpt lat="47.21804" lon="-1.54829">
        <ele>23.73</ele>
        <time>2024-01-11T09:39:00Z</time>
      </trkpt>
      <trkpt lat="47.21784" lon="-1.54814">
        <ele>24</ele>
        <time>2024-01-11T09:39:16Z</time>
      </trkpt>
      <trkpt lat="47.21777" lon="-1.54789">
        <ele>24</ele>
        <time>2024-01-11T09:39:32Z</time>
      </trkpt>
      <trkpt lat="47.21792" lon="-1.54767">
        <ele>24</ele>
        <time>2024-01-11T09:39:45Z</time>
      </trkpt>
      <trkpt lat="47.21802" lon="-1.54741">
        <ele>22.18</ele>
        <time>2024-01-11T09:39:57Z</time>
      </trkpt>
      <trkpt lat="47.21815" lon="-1.54719">
        <ele>22</ele>
        <time>2024-01-11T09:40:21Z</time>
      </trkpt>
      <trkpt lat="47.21822" lon="-1.5469">
        <ele>22</ele>
        <time>2024-01-11T09:40:33Z</time>
      </trkpt>
      <trkpt lat="47.21808" lon="-1.54671">
        <ele>22</ele>
        <time>2024-01-11T09:40:45Z</time>
      </trkpt>
      <trkpt lat="47.21808" lon="-1.54644">
        <ele>18.03</ele>
        <time>2024-01-11T09:41:02Z</time>
      </trkpt>
      <trkpt lat="47.21814" lon="-1.54618">
        <ele>18</ele>
        <time>2024-01-11T09:41:18Z</time>
      </trkpt>
      <trkpt lat="47.21811" lon="-1.54591">
        <ele>18</ele>
        <time>2024-01-11T09:41:34Z</time>
      </trkpt>
      <trkpt lat="47.21792" lon="-1.54581">
        <ele>16.6</ele>
        <time>2024-01-11T09:41:50Z</time>
      </trkpt>
      <trkpt lat="47.21771" lon="-1.54566">
        <ele>16</ele>
        <time>2024-01-11T09:42:06Z</time>
      </trkpt>
      <trkpt lat="47.21772" lon="-1.54536">
        <ele>16</ele>
        <time>2024-01-11T09:42:26Z</time>
      </trkpt>
      <trkpt lat="47.21783" lon="-1.54507">
        <ele>16</ele>
        <time>2024-01-11T09:42:42Z</time>
      </trkpt>
      <trkpt lat="47.21791" lon="-1.54482">
        <ele>13.08</ele>
        <time>2024-01-11T09:42:58Z</time>
      </trkpt>
      <trkpt lat="47.21796" lon="-1.54454">
        <ele>13</ele>
        <time>2024-01-11T09:43:14Z</time>
      </trkpt>
      <trkpt lat="47.21783" lon="-1.54426">
        <ele>13</ele>
        <time>2024-01-11T09:43:42Z</time>
      </trkpt>
      <trkpt lat="47.21762" lon="-1.54423">
        <ele>13</ele>
        <time>2024-01-11T09:43:54Z</time>
      </trkpt>
      <trkpt lat="47.21753" lon="-1.54446">
        <ele>13</ele>
        <time>2024-01-11T09:44:10Z</time>
      </trkpt>
      <trkpt lat="47.2174" lon="-1.5447">
        <ele>10.08</ele>
        <time>2024-01-11T09:44:38Z</time>
      </trkpt>
      <trkpt lat="47.2173" lon="-1.54495">
        <ele>10</ele>
        <time>2024-01-11T09:44:54Z</time>
      </trkpt>
      <trkpt lat="47.21712" lon="-1.54488">
        <ele>10</ele>
        <time>2024-01-11T09:45:22Z</time>
      </trkpt>
      <trkpt lat="47.21695" lon="-1.54498">
        <ele>10</ele>
        <time>2024-01-11T09:45:42Z</time>
      </trkpt>
      <trkpt lat="47.21681" lon="-1.54523">
        <ele>10</ele>
        <time>2024-01-11T09:45:58Z</time>
      </trkpt>
      <trkpt lat="47.21664" lon="-1.54541">
        <ele>9.3</ele>
        <time>2024-01-11T09:46:14Z</time>
      </trkpt>
      <trkpt lat="47.21642" lon="-1.54542">
        <ele>9</ele>
        <time>2024-01-11T09:46:30Z</time>
      </trkpt>
      <trkpt lat="47.21622" lon="-1.54552">
        <ele>9</ele>
        <time>2024-01-11T09:46:46Z</time>
      </trkpt>
      <trkpt lat="47.21608" lon="-1.54572">
        <ele>9</ele>
        <time>2024-01-11T09:47:02Z</time>
      </trkpt>
      <trkpt lat="47.21571" lon="-1.54534">
        <ele>8.85</ele>
        <time>2024-01-11T09:47:43Z</time>
      </trkpt>
      <trkpt lat="47.2158" lon="-1.54503">
        <ele>8</ele>
        <time>2024-01-11T09:48:03Z</time>
      </trkpt>
      <trkpt lat="47.21586" lon="-1.54473">
        <ele>10.65</ele>
        <time>2024-01-11T09:48:19Z</time>
      </trkpt>
      <trkpt lat="47.2159" lon="-1.54447">
        <ele>11</ele>
        <time>2024-01-11T09:48:35Z</time>
      </trkpt>
      <trkpt lat="47.2159" lon="-1.5442">
        <ele>11</ele>
        <time>2024-01-11T09:48:51Z</time>
      </trkpt>
      <trkpt lat="47.21587" lon="-1.5439">
        <ele>9.02</ele>
        <time>2024-01-11T09:49:07Z</time>
      </trkpt>
      <trkpt lat="47.21571" lon="-1.54371">
        <ele>8.03</ele>
        <time>2024-01-11T09:49:23Z</time>
      </trkpt>
      <trkpt lat="47.21562" lon="-1.54347">
        <ele>8</ele>
        <time>2024-01-11T09:49:39Z</time>
      </trkpt>
      <trkpt lat="47.21554" lon="-1.54324">
        <ele>7.09</ele>
        <time>2024-01-11T09:49:55Z</time>
      </trkpt>
      <trkpt lat="47.21543" lon="-1.54301">
        <ele>7</ele>
        <time>2024-01-11T09:50:11Z</time>
      </trkpt>
      <trkpt lat="47.21527" lon="-1.54285">
        <ele>7</ele>
        <time>2024-01-11T09:50:27Z</time>
      </trkpt>
      <trkpt lat="47.2151" lon="-1.54267">
        <ele>7</ele>
        <time>2024-01-11T09:50:43Z</time>
      </trkpt>
      <trkpt lat="47.21493" lon="-1.54247">
        <ele>5.39</ele>
        <time>2024-01-11T09:50:59Z</time>
      </trkpt>
      <trkpt lat="47.21478" lon="-1.54227">
        <ele>5</ele>
        <time>2024-01-11T09:51:15Z</time>
      </trkpt>
      <trkpt lat="47.21462" lon="-1.54205">
        <ele>5</ele>
        <time>2024-01-11T09:51:35Z</time>
      </trkpt>
      <trkpt lat="47.21448" lon="-1.54186">
        <ele>5</ele>
        <time>2024-01-11T09:51:51Z</time>
      </trkpt>
      <trkpt lat="47.21433" lon="-1.54167">
        <ele>7.8</ele>
        <time>2024-01-11T09:52:07Z</time>
      </trkpt>
      <trkpt lat="47.21421" lon="-1.5414">
        <ele>9</ele>
        <time>2024-01-11T09:52:27Z</time>
      </trkpt>
      <trkpt lat="47.21409" lon="-1.54115">
        <ele>7.05</ele>
        <time>2024-01-11T09:52:47Z</time>
      </trkpt>
      <trkpt lat="47.21398" lon="-1.54089">
        <ele>7</ele>
        <time>2024-01-11T09:53:03Z</time>
      </trkpt>
      <trkpt lat="47.21379" lon="-1.54074">
        <ele>8.98</ele>
        <time>2024-01-11T09:53:23Z</time>
      </trkpt>
      <trkpt lat="47.21359" lon="-1.54068">
        <ele>9</ele>
        <time>2024-01-11T09:53:39Z</time>
      </trkpt>
      <trkpt lat="47.21336" lon="-1.54064">
        <ele>9</ele>
        <time>2024-01-11T09:53:55Z</time>
      </trkpt>
      <trkpt lat="47.21319" lon="-1.54052">
        <ele>4.04</ele>
        <time>2024-01-11T09:54:11Z</time>
      </trkpt>
      <trkpt lat="47.21312" lon="-1.54027">
        <ele>4</ele>
        <time>2024-01-11T09:54:27Z</time>
      </trkpt>
      <trkpt lat="47.21308" lon="-1.54001">
        <ele>4</ele>
        <time>2024-01-11T09:54:43Z</time>
      </trkpt>
      <trkpt lat="47.21291" lon="-1.53984">
        <ele>7</ele>
        <time>2024-01-11T09:55:07Z</time>
      </trkpt>
      <trkpt lat="47.21271" lon="-1.53985">
        <ele>7</ele>
        <time>2024-01-11T09:55:23Z</time>
      </trkpt>
      <trkpt lat="47.21255" lon="-1.53966">
        <ele>7</ele>
        <time>2024-01-11T09:55:55Z</time>
      </trkpt>
      <trkpt lat="47.21246" lon="-1.53935">
        <ele>8.95</ele>
        <time>2024-01-11T09:56:15Z</time>
      </trkpt>
      <trkpt lat="47.21237" lon="-1.5391">
        <ele>13.55</ele>
        <time>2024-01-11T09:56:31Z</time>
      </trkpt>
      <trkpt lat="47.21228" lon="-1.53883">
        <ele>14</ele>
        <time>2024-01-11T09:56:47Z</time>
      </trkpt>
      <trkpt lat="47.2122" lon="-1.53856">
        <ele>14</ele>
        <time>2024-01-11T09:57:03Z</time>
      </trkpt>
      <trkpt lat="47.21215" lon="-1.5383">
        <ele>12.6</ele>
        <time>2024-01-11T09:57:19Z</time>
      </trkpt>
      <trkpt lat="47.21221" lon="-1.53801">
        <ele>12</ele>
        <time>2024-01-11T09:57:35Z</time>
      </trkpt>
      <trkpt lat="47.2123" lon="-1.53772">
        <ele>12</ele>
        <time>2024-01-11T09:57:51Z</time>
      </trkpt>
      <trkpt lat="47.21237" lon="-1.53747">
        <ele>8.5</ele>
        <time>2024-01-11T09:58:07Z</time>
      </trkpt>
      <trkpt lat="47.21234" lon="-1.53713">
        <ele>7</ele>
        <time>2024-01-11T09:58:27Z</time>
      </trkpt>
      <trkpt lat="47.21247" lon="-1.53686">
        <ele>7</ele>
        <time>2024-01-11T09:58:43Z</time>
      </trkpt>
      <trkpt lat="47.21258" lon="-1.53661">
        <ele>7.58</ele>
        <time>2024-01-11T09:58:59Z</time>
      </trkpt>
      <trkpt lat="47.21264" lon="-1.53635">
        <ele>7</ele>
        <time>2024-01-11T09:59:15Z</time>
      </trkpt>
      <trkpt lat="47.21263" lon="-1.53605">
        <ele>7</ele>
        <time>2024-01-11T09:59:39Z</time>
      </trkpt>
      <trkpt lat="47.21269" lon="-1.53575">
        <ele>7.91</ele>
        <time>2024-01-11T09:59:59Z</time>
      </trkpt>
      <trkpt lat="47.21272" lon="-1.53549">
        <ele>8</ele>
        <time>2024-01-11T10:00:11Z</time>
      </trkpt>
      <trkpt lat="47.21278" lon="-1.53516">
        <ele>8</ele>
        <time>2024-01-11T10:00:31Z</time>
      </trkpt>
      <trkpt lat="47.21283" lon="-1.53487">
        <ele>7.09</ele>
        <time>2024-01-11T10:00:47Z</time>
      </trkpt>
      <trkpt lat="47.21286" lon="-1.5346">
        <ele>7</ele>
        <time>2024-01-11T10:01:03Z</time>
      </trkpt>
      <trkpt lat="47.21287" lon="-1.53433">
        <ele>7</ele>
        <time>2024-01-11T10:01:19Z</time>
      </trkpt>
      <trkpt lat="47.2129" lon="-1.53402">
        <ele>6.09</ele>
        <time>2024-01-11T10:01:35Z</time>
      </trkpt>
      <trkpt lat="47.21292" lon="-1.53372">
        <ele>6</ele>
        <time>2024-01-11T10:01:51Z</time>
      </trkpt>
      <trkpt lat="47.21295" lon="-1.53341">
        <ele>6</ele>
        <time>2024-01-11T10:02:07Z</time>
      </trkpt>
      <trkpt lat="47.21298" lon="-1.53313">
        <ele>8.92</ele>
        <time>2024-01-11T10:02:23Z</time>
      </trkpt>
      <trkpt lat="47.21302" lon="-1.53284">
        <ele>9</ele>
        <time>2024-01-11T10:02:39Z</time>
      </trkpt>
      <trkpt lat="47.21304" lon="-1.53251">
        <ele>9</ele>
        <time>2024-01-11T10:02:55Z</time>
      </trkpt>
      <trkpt lat="47.21307" lon="-1.5322">
        <ele>9.99</ele>
        <time>2024-01-11T10:03:11Z</time>
      </trkpt>
      <trkpt lat="47.2131" lon="-1.53192">
        <ele>10</ele>
        <time>2024-01-11T10:03:27Z</time>
      </trkpt>
      <trkpt lat="47.21314" lon="-1.53159">
        <ele>8.18</ele>
        <time>2024-01-11T10:03:44Z</time>
      </trkpt>
      <trkpt lat="47.21317" lon="-1.53126">
        <ele>8</ele>
        <time>2024-01-11T10:04:01Z</time>
      </trkpt>
      <trkpt lat="47.21321" lon="-1.53099">
        <ele>8</ele>
        <time>2024-01-11T10:04:17Z</time>
      </trkpt>
      <trkpt lat="47.21324" lon="-1.5307">
        <ele>5.27</ele>
        <time>2024-01-11T10:04:33Z</time>
      </trkpt>
      <trkpt lat="47.21328" lon="-1.5304">
        <ele>5</ele>
        <time>2024-01-11T10:04:49Z</time>
      </trkpt>
      <trkpt lat="47.21331" lon="-1.53007">
        <ele>5</ele>
        <time>2024-01-11T10:05:05Z</time>
      </trkpt>
      <trkpt lat="47.21335" lon="-1.52978">
        <ele>10.52</ele>
        <time>2024-01-11T10:05:21Z</time>
      </trkpt>
      <trkpt lat="47.21336" lon="-1.52948">
        <ele>11</ele>
        <time>2024-01-11T10:05:37Z</time>
      </trkpt>
      <trkpt lat="47.21341" lon="-1.5292">
        <ele>11</ele>
        <time>2024-01-11T10:05:49Z</time>
      </trkpt>
      <trkpt lat="47.21345" lon="-1.52893">
        <ele>12.98</ele>
        <time>2024-01-11T10:06:05Z</time>
      </trkpt>
      <trkpt lat="47.21348" lon="-1.52861">
        <ele>13</ele>
        <time>2024-01-11T10:06:21Z</time>
      </trkpt>
      <trkpt lat="47.21354" lon="-1.52834">
        <ele>13</ele>
        <time>2024-01-11T10:06:37Z</time>
      </trkpt>
      <trkpt lat="47.21359" lon="-1.52804">
        <ele>12.01</ele>
        <time>2024-01-11T10:06:53Z</time>
      </trkpt>
      <trkpt lat="47.21366" lon="-1.52776">
        <ele>12</ele>
        <time>2024-01-11T10:07:09Z</time>
      </trkpt>
      <trkpt lat="47.2137" lon="-1.52744">
        <ele>10.6</ele>
        <time>2024-01-11T10:07:25Z</time>
      </trkpt>
      <trkpt lat="47.21377" lon="-1.52714">
        <ele>10</ele>
        <time>2024-01-11T10:07:41Z</time>
      </trkpt>
      <trkpt lat="47.21385" lon="-1.52688">
        <ele>10</ele>
        <time>2024-01-11T10:07:57Z</time>
      </trkpt>
      <trkpt lat="47.21392" lon="-1.52657">
        <ele>9.09</ele>
        <time>2024-01-11T10:08:13Z</time>
      </trkpt>
      <trkpt lat="47.21399" lon="-1.52626">
        <ele>9</ele>
        <time>2024-01-11T10:08:29Z</time>
      </trkpt>
      <trkpt lat="47.21408" lon="-1.52598">
        <ele>9</ele>
        <time>2024-01-11T10:08:45Z</time>
      </trkpt>
      <trkpt lat="47.21417" lon="-1.52571">
        <ele>9.49</ele>
        <time>2024-01-11T10:09:01Z</time>
      </trkpt>
      <trkpt lat="47.21427" lon="-1.52542">
        <ele>10</ele>
        <time>2024-01-11T10:09:17Z</time>
      </trkpt>
      <trkpt lat="47.21435" lon="-1.52515">
        <ele>10</ele>
        <time>2024-01-11T10:09:33Z</time>
      </trkpt>
      <trkpt lat="47.21444" lon="-1.52487">
        <ele>9.09</ele>
        <time>2024-01-11T10:09:49Z</time>
      </trkpt>
      <trkpt lat="47.21453" lon="-1.52459">
        <ele>9</ele>
        <time>2024-01-11T10:10:05Z</time>
      </trkpt>
      <trkpt lat="47.21463" lon="-1.52431">
        <ele>9</ele>
        <time>2024-01-11T10:10:21Z</time>
      </trkpt>
      <trkpt lat="47.21471" lon="-1.52403">
        <ele>8.09</ele>
        <time>2024-01-11T10:10:37Z</time>
      </trkpt>
      <trkpt lat="47.21479" lon="-1.52376">
        <ele>8</ele>
        <time>2024-01-11T10:10:53Z</time>
      </trkpt>
      <trkpt lat="47.21488" lon="-1.52349">
        <ele>8</ele>
        <time>2024-01-11T10:11:09Z</time>
      </trkpt>
      <trkpt lat="47.21496" lon="-1.5232">
        <ele>6.18</ele>
        <time>2024-01-11T10:11:25Z</time>
      </trkpt>
      <trkpt lat="47.21506" lon="-1.52291">
        <ele>10.87</ele>
        <time>2024-01-11T10:11:41Z</time>
      </trkpt>
      <trkpt lat="47.21516" lon="-1.52265">
        <ele>11</ele>
        <time>2024-01-11T10:11:57Z</time>
      </trkpt>
      <trkpt lat="47.21525" lon="-1.52237">
        <ele>11.91</ele>
        <time>2024-01-11T10:12:13Z</time>
      </trkpt>
      <trkpt lat="47.21533" lon="-1.52209">
        <ele>12</ele>
        <time>2024-01-11T10:12:29Z</time>
      </trkpt>
      <trkpt lat="47.21542" lon="-1.5218">
        <ele>12</ele>
        <time>2024-01-11T10:12:45Z</time>
      </trkpt>
      <trkpt lat="47.21551" lon="-1.5215">
        <ele>10.05</ele>
        <time>2024-01-11T10:13:01Z</time>
      </trkpt>
      <trkpt lat="47.2156" lon="-1.52123">
        <ele>10</ele>
        <time>2024-01-11T10:13:17Z</time>
      </trkpt>
      <trkpt lat="47.2157" lon="-1.52096">
        <ele>10</ele>
        <time>2024-01-11T10:13:33Z</time>
      </trkpt>
      <trkpt lat="47.21579" lon="-1.52065">
        <ele>5.14</ele>
        <time>2024-01-11T10:13:50Z</time>
      </trkpt>
      <trkpt lat="47.21589" lon="-1.52034">
        <ele>8.89</ele>
        <time>2024-01-11T10:14:06Z</time>
      </trkpt>
      <trkpt lat="47.21598" lon="-1.52006">
        <ele>9</ele>
        <time>2024-01-11T10:14:22Z</time>
      </trkpt>
      <trkpt lat="47.21608" lon="-1.51978">
        <ele>9</ele>
        <time>2024-01-11T10:14:38Z</time>
      </trkpt>
      <trkpt lat="47.21619" lon="-1.51953">
        <ele>9</ele>
        <time>2024-01-11T10:14:54Z</time>
      </trkpt>
      <trkpt lat="47.21624" lon="-1.51919">
        <ele>9</ele>
        <time>2024-01-11T10:15:10Z</time>
      </trkpt>
      <trkpt lat="47.21637" lon="-1.51894">
        <ele>8.01</ele>
        <time>2024-01-11T10:15:26Z</time>
      </trkpt>
      <trkpt lat="47.21643" lon="-1.51864">
        <ele>8</ele>
        <time>2024-01-11T10:15:42Z</time>
      </trkpt>
      <trkpt lat="47.21651" lon="-1.5184">
        <ele>8</ele>
        <time>2024-01-11T10:15:54Z</time>
      </trkpt>
      <trkpt lat="47.2166" lon="-1.51812">
        <ele>8</ele>
        <time>2024-01-11T10:16:10Z</time>
      </trkpt>
      <trkpt lat="47.21673" lon="-1.51784">
        <ele>8</ele>
        <time>2024-01-11T10:16:26Z</time>
      </trkpt>
      <trkpt lat="47.21685" lon="-1.51757">
        <ele>8</ele>
        <time>2024-01-11T10:16:42Z</time>
      </trkpt>
      <trkpt lat="47.21697" lon="-1.51729">
        <ele>6.02</ele>
        <time>2024-01-11T10:16:58Z</time>
      </trkpt>
      <trkpt lat="47.21709" lon="-1.51705">
        <ele>6</ele>
        <time>2024-01-11T10:17:14Z</time>
      </trkpt>
      <trkpt lat="47.21721" lon="-1.51677">
        <ele>6</ele>
        <time>2024-01-11T10:17:30Z</time>
      </trkpt>
      <trkpt lat="47.21735" lon="-1.5165">
        <ele>6.97</ele>
        <time>2024-01-11T10:17:46Z</time>
      </trkpt>
      <trkpt lat="47.21745" lon="-1.51622">
        <ele>7</ele>
        <time>2024-01-11T10:18:02Z</time>
      </trkpt>
      <trkpt lat="47.21758" lon="-1.516">
        <ele>7</ele>
        <time>2024-01-11T10:18:18Z</time>
      </trkpt>
      <trkpt lat="47.21775" lon="-1.51576">
        <ele>7</ele>
        <time>2024-01-11T10:18:34Z</time>
      </trkpt>
      <trkpt lat="47.21787" lon="-1.51551">
        <ele>7</ele>
        <time>2024-01-11T10:18:50Z</time>
      </trkpt>
      <trkpt lat="47.21797" lon="-1.51522">
        <ele>7</ele>
        <time>2024-01-11T10:19:06Z</time>
      </trkpt>
      <trkpt lat="47.2181" lon="-1.51496">
        <ele>5.6</ele>
        <time>2024-01-11T10:19:22Z</time>
      </trkpt>
      <trkpt lat="47.21817" lon="-1.51466">
        <ele>5</ele>
        <time>2024-01-11T10:19:38Z</time>
      </trkpt>
      <trkpt lat="47.21823" lon="-1.51433">
        <ele>5</ele>
        <time>2024-01-11T10:19:54Z</time>
      </trkpt>
      <trkpt lat="47.21829" lon="-1.51403">
        <ele>5.91</ele>
        <time>2024-01-11T10:20:10Z</time>
      </trkpt>
      <trkpt lat="47.21836" lon="-1.51374">
        <ele>6</ele>
        <time>2024-01-11T10:20:26Z</time>
      </trkpt>
      <trkpt lat="47.21845" lon="-1.51348">
        <ele>6</ele>
        <time>2024-01-11T10:20:38Z</time>
      </trkpt>
      <trkpt lat="47.21855" lon="-1.51319">
        <ele>6</ele>
        <time>2024-01-11T10:20:54Z</time>
      </trkpt>
      <trkpt lat="47.21862" lon="-1.51294">
        <ele>6</ele>
        <time>2024-01-11T10:21:06Z</time>
      </trkpt>
      <trkpt lat="47.2187" lon="-1.51269">
        <ele>6</ele>
        <time>2024-01-11T10:21:18Z</time>
      </trkpt>
      <trkpt lat="47.21881" lon="-1.51241">
        <ele>6</ele>
        <time>2024-01-11T10:21:34Z</time>
      </trkpt>
      <trkpt lat="47.21888" lon="-1.51214">
        <ele>6</ele>
        <time>2024-01-11T10:21:46Z</time>
      </trkpt>
      <trkpt lat="47.21899" lon="-1.51184">
        <ele>6</ele>
        <time>2024-01-11T10:22:02Z</time>
      </trkpt>
      <trkpt lat="47.21908" lon="-1.51152">
        <ele>5.09</ele>
        <time>2024-01-11T10:22:18Z</time>
      </trkpt>
      <trkpt lat="47.21917" lon="-1.5112">
        <ele>5.7</ele>
        <time>2024-01-11T10:22:34Z</time>
      </trkpt>
      <trkpt lat="47.21926" lon="-1.51089">
        <ele>6</ele>
        <time>2024-01-11T10:22:50Z</time>
      </trkpt>
      <trkpt lat="47.21938" lon="-1.51067">
        <ele>5.01</ele>
        <time>2024-01-11T10:23:06Z</time>
      </trkpt>
      <trkpt lat="47.21948" lon="-1.51044">
        <ele>5</ele>
        <time>2024-01-11T10:23:50Z</time>
      </trkpt>
      <trkpt lat="47.21958" lon="-1.51016">
        <ele>5</ele>
        <time>2024-01-11T10:24:50Z</time>
      </trkpt>
      <trkpt lat="47.21964" lon="-1.5099">
        <ele>3.18</ele>
        <time>2024-01-11T10:25:10Z</time>
      </trkpt>
      <trkpt lat="47.21973" lon="-1.50963">
        <ele>3</ele>
        <time>2024-01-11T10:25:30Z</time>
      </trkpt>
      <trkpt lat="47.21979" lon="-1.50938">
        <ele>3</ele>
        <time>2024-01-11T10:25:47Z</time>
      </trkpt>
      <trkpt lat="47.21986" lon="-1.50911">
        <ele>3</ele>
        <time>2024-01-11T10:26:03Z</time>
      </trkpt>
      <trkpt lat="47.21992" lon="-1.50884">
        <ele>3</ele>
        <time>2024-01-11T10:26:19Z</time>
      </trkpt>
      <trkpt lat="47.22002" lon="-1.50857">
        <ele>3.7</ele>
        <time>2024-01-11T10:26:35Z</time>
      </trkpt>
      <trkpt lat="47.22013" lon="-1.50831">
        <ele>4</ele>
        <time>2024-01-11T10:26:51Z</time>
      </trkpt>
      <trkpt lat="47.22023" lon="-1.50809">
        <ele>4</ele>
        <time>2024-01-11T10:27:07Z</time>
      </trkpt>
      <trkpt lat="47.22032" lon="-1.5078">
        <ele>4</ele>
        <time>2024-01-11T10:27:23Z</time>
      </trkpt>
      <trkpt lat="47.22037" lon="-1.50751">
        <ele>4</ele>
        <time>2024-01-11T10:27:39Z</time>
      </trkpt>
      <trkpt lat="47.22042" lon="-1.50721">
        <ele>4.99</ele>
        <time>2024-01-11T10:27:55Z</time>
      </trkpt>
      <trkpt lat="47.22045" lon="-1.5069">
        <ele>5</ele>
        <time>2024-01-11T10:28:11Z</time>
      </trkpt>
      <trkpt lat="47.22051" lon="-1.50663">
        <ele>5</ele>
        <time>2024-01-11T10:28:27Z</time>
      </trkpt>
      <trkpt lat="47.22051" lon="-1.50635">
        <ele>5</ele>
        <time>2024-01-11T10:28:43Z</time>
      </trkpt>
      <trkpt lat="47.22051" lon="-1.50607">
        <ele>5</ele>
        <time>2024-01-11T10:28:59Z</time>
      </trkpt>
      <trkpt lat="47.22053" lon="-1.50578">
        <ele>5.7</ele>
        <time>2024-01-11T10:29:15Z</time>
      </trkpt>
      <trkpt lat="47.22056" lon="-1.50546">
        <ele>6</ele>
        <time>2024-01-11T10:29:31Z</time>
      </trkpt>
      <trkpt lat="47.22059" lon="-1.50513">
        <ele>6</ele>
        <time>2024-01-11T10:29:47Z</time>
      </trkpt>
      <trkpt lat="47.2206" lon="-1.50483">
        <ele>5.03</ele>
        <time>2024-01-11T10:30:03Z</time>
      </trkpt>
      <trkpt lat="47.22064" lon="-1.50452">
        <ele>5</ele>
        <time>2024-01-11T10:30:19Z</time>
      </trkpt>
      <trkpt lat="47.22068" lon="-1.50421">
        <ele>5</ele>
        <time>2024-01-11T10:30:36Z</time>
      </trkpt>
      <trkpt lat="47.22075" lon="-1.50389">
        <ele>6.98</ele>
        <time>2024-01-11T10:30:52Z</time>
      </trkpt>
      <trkpt lat="47.22083" lon="-1.5036">
        <ele>7</ele>
        <time>2024-01-11T10:31:08Z</time>
      </trkpt>
      <trkpt lat="47.2209" lon="-1.50332">
        <ele>3.73</ele>
        <time>2024-01-11T10:31:24Z</time>
      </trkpt>
      <trkpt lat="47.22104" lon="-1.50304">
        <ele>4</ele>
        <time>2024-01-11T10:31:40Z</time>
      </trkpt>
      <trkpt lat="47.22116" lon="-1.50278">
        <ele>4</ele>
        <time>2024-01-11T10:31:56Z</time>
      </trkpt>
      <trkpt lat="47.22127" lon="-1.50253">
        <ele>4</ele>
        <time>2024-01-11T10:32:12Z</time>
      </trkpt>
      <trkpt lat="47.22136" lon="-1.50229">
        <ele>4</ele>
        <time>2024-01-11T10:32:28Z</time>
      </trkpt>
      <trkpt lat="47.22144" lon="-1.50201">
        <ele>4</ele>
        <time>2024-01-11T10:32:44Z</time>
      </trkpt>
      <trkpt lat="47.22149" lon="-1.5017">
        <ele>4</ele>
        <time>2024-01-11T10:33:00Z</time>
      </trkpt>
      <trkpt lat="47.22156" lon="-1.50142">
        <ele>4</ele>
        <time>2024-01-11T10:33:16Z</time>
      </trkpt>
      <trkpt lat="47.22168" lon="-1.50114">
        <ele>3.3</ele>
        <time>2024-01-11T10:33:33Z</time>
      </trkpt>
      <trkpt lat="47.22177" lon="-1.5009">
        <ele>3</ele>
        <time>2024-01-11T10:33:49Z</time>
      </trkpt>
      <trkpt lat="47.22183" lon="-1.50059">
        <ele>2.01</ele>
        <time>2024-01-11T10:34:05Z</time>
      </trkpt>
      <trkpt lat="47.2219" lon="-1.50028">
        <ele>2</ele>
        <time>2024-01-11T10:34:21Z</time>
      </trkpt>
      <trkpt lat="47.22196" lon="-1.5">
        <ele>2</ele>
        <time>2024-01-11T10:34:37Z</time>
      </trkpt>
      <trkpt lat="47.22206" lon="-1.49974">
        <ele>2</ele>
        <time>2024-01-11T10:34:53Z</time>
      </trkpt>
      <trkpt lat="47.22211" lon="-1.49947">
        <ele>2</ele>
        <time>2024-01-11T10:35:09Z</time>
      </trkpt>
      <trkpt lat="47.22219" lon="-1.49914">
        <ele>2</ele>
        <time>2024-01-11T10:35:25Z</time>
      </trkpt>
      <trkpt lat="47.22226" lon="-1.49886">
        <ele>2</ele>
        <time>2024-01-11T10:35:41Z</time>
      </trkpt>
      <trkpt lat="47.22234" lon="-1.49858">
        <ele>2</ele>
        <time>2024-01-11T10:35:57Z</time>
      </trkpt>
      <trkpt lat="47.2224" lon="-1.49829">
        <ele>2.7</ele>
        <time>2024-01-11T10:36:13Z</time>
      </trkpt>
      <trkpt lat="47.22245" lon="-1.498">
        <ele>3</ele>
        <time>2024-01-11T10:36:29Z</time>
      </trkpt>
      <trkpt lat="47.22249" lon="-1.49772">
        <ele>3</ele>
        <time>2024-01-11T10:36:45Z</time>
      </trkpt>
      <trkpt lat="47.22253" lon="-1.49743">
        <ele>3.91</ele>
        <time>2024-01-11T10:37:01Z</time>
      </trkpt>
      <trkpt lat="47.22261" lon="-1.49713">
        <ele>4</ele>
        <time>2024-01-11T10:37:17Z</time>
      </trkpt>
      <trkpt lat="47.22272" lon="-1.49685">
        <ele>4</ele>
        <time>2024-01-11T10:37:33Z</time>
      </trkpt>
      <trkpt lat="47.22281" lon="-1.49654">
        <ele>4.91</ele>
        <time>2024-01-11T10:37:49Z</time>
      </trkpt>
      <trkpt lat="47.22288" lon="-1.49629">
        <ele>5</ele>
        <time>2024-01-11T10:38:05Z</time>
      </trkpt>
      <trkpt lat="47.22297" lon="-1.49598">
        <ele>5</ele>
        <time>2024-01-11T10:38:25Z</time>
      </trkpt>
      <trkpt lat="47.22306" lon="-1.49571">
        <ele>6.95</ele>
        <time>2024-01-11T10:38:41Z</time>
      </trkpt>
      <trkpt lat="47.22317" lon="-1.49542">
        <ele>7</ele>
        <time>2024-01-11T10:38:57Z</time>
      </trkpt>
      <trkpt lat="47.22325" lon="-1.49518">
        <ele>7</ele>
        <time>2024-01-11T10:39:13Z</time>
      </trkpt>
      <trkpt lat="47.22332" lon="-1.4949">
        <ele>10.64</ele>
        <time>2024-01-11T10:39:29Z</time>
      </trkpt>
      <trkpt lat="47.22342" lon="-1.49462">
        <ele>10.01</ele>
        <time>2024-01-11T10:39:45Z</time>
      </trkpt>
      <trkpt lat="47.22351" lon="-1.49435">
        <ele>10</ele>
        <time>2024-01-11T10:40:01Z</time>
      </trkpt>
      <trkpt lat="47.22364" lon="-1.49406">
        <ele>6.36</ele>
        <time>2024-01-11T10:40:21Z</time>
      </trkpt>
      <trkpt lat="47.22375" lon="-1.49382">
        <ele>6</ele>
        <time>2024-01-11T10:40:37Z</time>
      </trkpt>
      <trkpt lat="47.22386" lon="-1.49355">
        <ele>6</ele>
        <time>2024-01-11T10:40:53Z</time>
      </trkpt>
      <trkpt lat="47.22398" lon="-1.49332">
        <ele>6</ele>
        <time>2024-01-11T10:41:09Z</time>
      </trkpt>
      <trkpt lat="47.22407" lon="-1.49304">
        <ele>6</ele>
        <time>2024-01-11T10:41:25Z</time>
      </trkpt>
      <trkpt lat="47.22414" lon="-1.49277">
        <ele>6</ele>
        <time>2024-01-11T10:41:41Z</time>
      </trkpt>
      <trkpt lat="47.22427" lon="-1.49251">
        <ele>6.99</ele>
        <time>2024-01-11T10:41:58Z</time>
      </trkpt>
      <trkpt lat="47.22437" lon="-1.49224">
        <ele>7.99</ele>
        <time>2024-01-11T10:42:14Z</time>
      </trkpt>
      <trkpt lat="47.22446" lon="-1.49198">
        <ele>8</ele>
        <time>2024-01-11T10:42:30Z</time>
      </trkpt>
      <trkpt lat="47.22457" lon="-1.49175">
        <ele>8</ele>
        <time>2024-01-11T10:42:46Z</time>
      </trkpt>
      <trkpt lat="47.22465" lon="-1.49147">
        <ele>7.03</ele>
        <time>2024-01-11T10:43:02Z</time>
      </trkpt>
      <trkpt lat="47.22474" lon="-1.4912">
        <ele>7</ele>
        <time>2024-01-11T10:43:18Z</time>
      </trkpt>
      <trkpt lat="47.22482" lon="-1.49092">
        <ele>7</ele>
        <time>2024-01-11T10:43:34Z</time>
      </trkpt>
      <trkpt lat="47.22492" lon="-1.49066">
        <ele>4.08</ele>
        <time>2024-01-11T10:43:50Z</time>
      </trkpt>
      <trkpt lat="47.22498" lon="-1.49037">
        <ele>4</ele>
        <time>2024-01-11T10:44:06Z</time>
      </trkpt>
      <trkpt lat="47.22507" lon="-1.4901">
        <ele>3.03</ele>
        <time>2024-01-11T10:44:22Z</time>
      </trkpt>
      <trkpt lat="47.22515" lon="-1.48981">
        <ele>2.03</ele>
        <time>2024-01-11T10:44:38Z</time>
      </trkpt>
      <trkpt lat="47.22527" lon="-1.48953">
        <ele>2</ele>
        <time>2024-01-11T10:44:54Z</time>
      </trkpt>
      <trkpt lat="47.22537" lon="-1.48926">
        <ele>2</ele>
        <time>2024-01-11T10:45:10Z</time>
      </trkpt>
      <trkpt lat="47.22541" lon="-1.489">
        <ele>2</ele>
        <time>2024-01-11T10:45:26Z</time>
      </trkpt>
      <trkpt lat="47.22549" lon="-1.48873">
        <ele>2</ele>
        <time>2024-01-11T10:45:42Z</time>
      </trkpt>
      <trkpt lat="47.22559" lon="-1.48843">
        <ele>2</ele>
        <time>2024-01-11T10:45:58Z</time>
      </trkpt>
      <trkpt lat="47.22566" lon="-1.48817">
        <ele>1.03</ele>
        <time>2024-01-11T10:46:14Z</time>
      </trkpt>
      <trkpt lat="47.22579" lon="-1.48792">
        <ele>1</ele>
        <time>2024-01-11T10:46:30Z</time>
      </trkpt>
      <trkpt lat="47.22588" lon="-1.48763">
        <ele>2.82</ele>
        <time>2024-01-11T10:46:46Z</time>
      </trkpt>
      <trkpt lat="47.22593" lon="-1.48736">
        <ele>3.97</ele>
        <time>2024-01-11T10:47:02Z</time>
      </trkpt>
      <trkpt lat="47.22603" lon="-1.48708">
        <ele>4</ele>
        <time>2024-01-11T10:47:18Z</time>
      </trkpt>
      <trkpt lat="47.2261" lon="-1.48678">
        <ele>4</ele>
        <time>2024-01-11T10:47:34Z</time>
      </trkpt>
      <trkpt lat="47.2262" lon="-1.48653">
        <ele>4</ele>
        <time>2024-01-11T10:47:50Z</time>
      </trkpt>
      <trkpt lat="47.22628" lon="-1.48625">
        <ele>4</ele>
        <time>2024-01-11T10:48:06Z</time>
      </trkpt>
      <trkpt lat="47.22638" lon="-1.48599">
        <ele>4</ele>
        <time>2024-01-11T10:48:22Z</time>
      </trkpt>
      <trkpt lat="47.22649" lon="-1.48573">
        <ele>3.09</ele>
        <time>2024-01-11T10:48:38Z</time>
      </trkpt>
      <trkpt lat="47.22658" lon="-1.48544">
        <ele>3</ele>
        <time>2024-01-11T10:48:54Z</time>
      </trkpt>
      <trkpt lat="47.22666" lon="-1.48517">
        <ele>3</ele>
        <time>2024-01-11T10:49:10Z</time>
      </trkpt>
      <trkpt lat="47.22678" lon="-1.48491">
        <ele>2.34</ele>
        <time>2024-01-11T10:49:26Z</time>
      </trkpt>
      <trkpt lat="47.22687" lon="-1.48466">
        <ele>2</ele>
        <time>2024-01-11T10:49:42Z</time>
      </trkpt>
      <trkpt lat="47.22698" lon="-1.4844">
        <ele>2</ele>
        <time>2024-01-11T10:49:58Z</time>
      </trkpt>
      <trkpt lat="47.22708" lon="-1.4841">
        <ele>2.7</ele>
        <time>2024-01-11T10:50:14Z</time>
      </trkpt>
      <trkpt lat="47.22722" lon="-1.4839">
        <ele>3</ele>
        <time>2024-01-11T10:50:30Z</time>
      </trkpt>
      <trkpt lat="47.22739" lon="-1.48367">
        <ele>3</ele>
        <time>2024-01-11T10:50:46Z</time>
      </trkpt>
      <trkpt lat="47.22756" lon="-1.48342">
        <ele>1.18</ele>
        <time>2024-01-11T10:51:06Z</time>
      </trkpt>
      <trkpt lat="47.22773" lon="-1.48322">
        <ele>1.97</ele>
        <time>2024-01-11T10:51:22Z</time>
      </trkpt>
      <trkpt lat="47.22788" lon="-1.48299">
        <ele>2</ele>
        <time>2024-01-11T10:51:38Z</time>
      </trkpt>
      <trkpt lat="47.22803" lon="-1.48277">
        <ele>2</ele>
        <time>2024-01-11T10:51:54Z</time>
      </trkpt>
      <trkpt lat="47.22815" lon="-1.48255">
        <ele>2</ele>
        <time>2024-01-11T10:52:10Z</time>
      </trkpt>
      <trkpt lat="47.2283" lon="-1.48234">
        <ele>3.98</ele>
        <time>2024-01-11T10:52:26Z</time>
      </trkpt>
      <trkpt lat="47.22845" lon="-1.4821">
        <ele>4.99</ele>
        <time>2024-01-11T10:52:42Z</time>
      </trkpt>
      <trkpt lat="47.22859" lon="-1.48187">
        <ele>5</ele>
        <time>2024-01-11T10:52:58Z</time>
      </trkpt>
      <trkpt lat="47.22873" lon="-1.48164">
        <ele>2.9</ele>
        <time>2024-01-11T10:53:14Z</time>
      </trkpt>
      <trkpt lat="47.22887" lon="-1.48139">
        <ele>2.01</ele>
        <time>2024-01-11T10:53:30Z</time>
      </trkpt>
      <trkpt lat="47.22904" lon="-1.48118">
        <ele>2</ele>
        <time>2024-01-11T10:53:47Z</time>
      </trkpt>
      <trkpt lat="47.22925" lon="-1.48108">
        <ele>3.82</ele>
        <time>2024-01-11T10:54:03Z</time>
      </trkpt>
      <trkpt lat="47.22947" lon="-1.48108">
        <ele>4</ele>
        <time>2024-01-11T10:54:19Z</time>
      </trkpt>
      <trkpt lat="47.2296" lon="-1.48088">
        <ele>4</ele>
        <time>2024-01-11T10:54:35Z</time>
      </trkpt>
      <trkpt lat="47.22973" lon="-1.48063">
        <ele>4</ele>
        <time>2024-01-11T10:54:51Z</time>
      </trkpt>
      <trkpt lat="47.22987" lon="-1.48039">
        <ele>4</ele>
        <time>2024-01-11T10:55:07Z</time>
      </trkpt>
      <trkpt lat="47.23001" lon="-1.48013">
        <ele>4.7</ele>
        <time>2024-01-11T10:55:23Z</time>
      </trkpt>
      <trkpt lat="47.23015" lon="-1.47992">
        <ele>5.91</ele>
        <time>2024-01-11T10:55:39Z</time>
      </trkpt>
      <trkpt lat="47.23028" lon="-1.4797">
        <ele>6</ele>
        <time>2024-01-11T10:55:55Z</time>
      </trkpt>
      <trkpt lat="47.23044" lon="-1.47949">
        <ele>6</ele>
        <time>2024-01-11T10:56:11Z</time>
      </trkpt>
      <trkpt lat="47.2306" lon="-1.47928">
        <ele>6</ele>
        <time>2024-01-11T10:56:27Z</time>
      </trkpt>
      <trkpt lat="47.23075" lon="-1.47908">
        <ele>5.09</ele>
        <time>2024-01-11T10:56:43Z</time>
      </trkpt>
      <trkpt lat="47.23091" lon="-1.47891">
        <ele>4.03</ele>
        <time>2024-01-11T10:56:59Z</time>
      </trkpt>
      <trkpt lat="47.23106" lon="-1.47866">
        <ele>4</ele>
        <time>2024-01-11T10:57:15Z</time>
      </trkpt>
      <trkpt lat="47.23119" lon="-1.47842">
        <ele>4</ele>
        <time>2024-01-11T10:57:31Z</time>
      </trkpt>
      <trkpt lat="47.23131" lon="-1.47819">
        <ele>4</ele>
        <time>2024-01-11T10:57:47Z</time>
      </trkpt>
      <trkpt lat="47.23142" lon="-1.47792">
        <ele>4</ele>
        <time>2024-01-11T10:58:03Z</time>
      </trkpt>
      <trkpt lat="47.23151" lon="-1.47764">
        <ele>4</ele>
        <time>2024-01-11T10:58:19Z</time>
      </trkpt>
      <trkpt lat="47.23161" lon="-1.47736">
        <ele>4</ele>
        <time>2024-01-11T10:58:35Z</time>
      </trkpt>
      <trkpt lat="47.23173" lon="-1.47714">
        <ele>2.05</ele>
        <time>2024-01-11T10:58:51Z</time>
      </trkpt>
      <trkpt lat="47.23185" lon="-1.4769">
        <ele>2</ele>
        <time>2024-01-11T10:59:07Z</time>
      </trkpt>
      <trkpt lat="47.23196" lon="-1.47666">
        <ele>2.7</ele>
        <time>2024-01-11T10:59:23Z</time>
      </trkpt>
      <trkpt lat="47.23204" lon="-1.47641">
        <ele>3</ele>
        <time>2024-01-11T10:59:39Z</time>
      </trkpt>
      <trkpt lat="47.23214" lon="-1.47613">
        <ele>3</ele>
        <time>2024-01-11T10:59:55Z</time>
      </trkpt>
      <trkpt lat="47.23226" lon="-1.47586">
        <ele>3</ele>
        <time>2024-01-11T11:00:11Z</time>
      </trkpt>
      <trkpt lat="47.23239" lon="-1.47564">
        <ele>3.99</ele>
        <time>2024-01-11T11:00:27Z</time>
      </trkpt>
      <trkpt lat="47.23252" lon="-1.47543">
        <ele>4.7</ele>
        <time>2024-01-11T11:00:43Z</time>
      </trkpt>
      <trkpt lat="47.23265" lon="-1.47519">
        <ele>5</ele>
        <time>2024-01-11T11:00:59Z</time>
      </trkpt>
      <trkpt lat="47.23284" lon="-1.47512">
        <ele>5</ele>
        <time>2024-01-11T11:01:15Z</time>
      </trkpt>
      <trkpt lat="47.23304" lon="-1.47493">
        <ele>5.97</ele>
        <time>2024-01-11T11:01:35Z</time>
      </trkpt>
      <trkpt lat="47.23319" lon="-1.47478">
        <ele>6</ele>
        <time>2024-01-11T11:01:51Z</time>
      </trkpt>
      <trkpt lat="47.23335" lon="-1.47463">
        <ele>5.3</ele>
        <time>2024-01-11T11:02:07Z</time>
      </trkpt>
      <trkpt lat="47.23357" lon="-1.47459">
        <ele>5</ele>
        <time>2024-01-11T11:02:23Z</time>
      </trkpt>
      <trkpt lat="47.23376" lon="-1.47449">
        <ele>5</ele>
        <time>2024-01-11T11:02:39Z</time>
      </trkpt>
      <trkpt lat="47.23394" lon="-1.47439">
        <ele>5</ele>
        <time>2024-01-11T11:02:55Z</time>
      </trkpt>
      <trkpt lat="47.23413" lon="-1.47428">
        <ele>5</ele>
        <time>2024-01-11T11:03:11Z</time>
      </trkpt>
      <trkpt lat="47.23431" lon="-1.47416">
        <ele>5.7</ele>
        <time>2024-01-11T11:03:27Z</time>
      </trkpt>
      <trkpt lat="47.23449" lon="-1.47405">
        <ele>6</ele>
        <time>2024-01-11T11:03:43Z</time>
      </trkpt>
      <trkpt lat="47.23471" lon="-1.47394">
        <ele>6</ele>
        <time>2024-01-11T11:03:59Z</time>
      </trkpt>
      <trkpt lat="47.23488" lon="-1.47383">
        <ele>6</ele>
        <time>2024-01-11T11:04:15Z</time>
      </trkpt>
      <trkpt lat="47.23506" lon="-1.4737">
        <ele>5.09</ele>
        <time>2024-01-11T11:04:31Z</time>
      </trkpt>
      <trkpt lat="47.23524" lon="-1.47357">
        <ele>5</ele>
        <time>2024-01-11T11:04:47Z</time>
      </trkpt>
      <trkpt lat="47.23541" lon="-1.47342">
        <ele>5</ele>
        <time>2024-01-11T11:05:03Z</time>
      </trkpt>
      <trkpt lat="47.23558" lon="-1.47329">
        <ele>5</ele>
        <time>2024-01-11T11:05:19Z</time>
      </trkpt>
      <trkpt lat="47.23576" lon="-1.47313">
        <ele>5</ele>
        <time>2024-01-11T11:05:35Z</time>
      </trkpt>
      <trkpt lat="47.23594" lon="-1.47299">
        <ele>5.97</ele>
        <time>2024-01-11T11:05:51Z</time>
      </trkpt>
      <trkpt lat="47.2361" lon="-1.4728">
        <ele>6</ele>
        <time>2024-01-11T11:06:07Z</time>
      </trkpt>
      <trkpt lat="47.23626" lon="-1.47264">
        <ele>6</ele>
        <time>2024-01-11T11:06:23Z</time>
      </trkpt>
      <trkpt lat="47.23643" lon="-1.47248">
        <ele>6.7</ele>
        <time>2024-01-11T11:06:39Z</time>
      </trkpt>
      <trkpt lat="47.23659" lon="-1.4723">
        <ele>7</ele>
        <time>2024-01-11T11:06:55Z</time>
      </trkpt>
      <trkpt lat="47.23674" lon="-1.47209">
        <ele>4.08</ele>
        <time>2024-01-11T11:07:11Z</time>
      </trkpt>
      <trkpt lat="47.23688" lon="-1.47186">
        <ele>4</ele>
        <time>2024-01-11T11:07:27Z</time>
      </trkpt>
      <trkpt lat="47.23703" lon="-1.47168">
        <ele>4</ele>
        <time>2024-01-11T11:07:43Z</time>
      </trkpt>
      <trkpt lat="47.23718" lon="-1.47149">
        <ele>5.98</ele>
        <time>2024-01-11T11:07:59Z</time>
      </trkpt>
      <trkpt lat="47.23733" lon="-1.47129">
        <ele>6</ele>
        <time>2024-01-11T11:08:15Z</time>
      </trkpt>
      <trkpt lat="47.23749" lon="-1.4711">
        <ele>6</ele>
        <time>2024-01-11T11:08:31Z</time>
      </trkpt>
      <trkpt lat="47.23764" lon="-1.47091">
        <ele>4.02</ele>
        <time>2024-01-11T11:08:47Z</time>
      </trkpt>
      <trkpt lat="47.23778" lon="-1.4707">
        <ele>5.95</ele>
        <time>2024-01-11T11:09:03Z</time>
      </trkpt>
      <trkpt lat="47.23792" lon="-1.47048">
        <ele>6</ele>
        <time>2024-01-11T11:09:19Z</time>
      </trkpt>
      <trkpt lat="47.23807" lon="-1.47027">
        <ele>6</ele>
        <time>2024-01-11T11:09:36Z</time>
      </trkpt>
      <trkpt lat="47.23822" lon="-1.47007">
        <ele>6</ele>
        <time>2024-01-11T11:09:52Z</time>
      </trkpt>
      <trkpt lat="47.23835" lon="-1.46987">
        <ele>5.03</ele>
        <time>2024-01-11T11:10:08Z</time>
      </trkpt>
      <trkpt lat="47.23848" lon="-1.46968">
        <ele>5</ele>
        <time>2024-01-11T11:10:44Z</time>
      </trkpt>
      <trkpt lat="47.23862" lon="-1.4695">
        <ele>5</ele>
        <time>2024-01-11T11:16:50Z</time>
      </trkpt>
      <trkpt lat="47.23874" lon="-1.46928">
        <ele>5</ele>
        <time>2024-01-11T11:17:22Z</time>
      </trkpt>
      <trkpt lat="47.23891" lon="-1.46908">
        <ele>5.99</ele>
        <time>2024-01-11T11:17:54Z</time>
      </trkpt>
      <trkpt lat="47.23905" lon="-1.46891">
        <ele>6</ele>
        <time>2024-01-11T11:18:22Z</time>
      </trkpt>
      <trkpt lat="47.23921" lon="-1.46873">
        <ele>5.09</ele>
        <time>2024-01-11T11:18:50Z</time>
      </trkpt>
      <trkpt lat="47.23938" lon="-1.46853">
        <ele>5</ele>
        <time>2024-01-11T11:19:18Z</time>
      </trkpt>
      <trkpt lat="47.23955" lon="-1.46836">
        <ele>5</ele>
        <time>2024-01-11T11:19:42Z</time>
      </trkpt>
      <trkpt lat="47.23972" lon="-1.46825">
        <ele>5</ele>
        <time>2024-01-11T11:20:10Z</time>
      </trkpt>
      <trkpt lat="47.23989" lon="-1.46807">
        <ele>5</ele>
        <time>2024-01-11T11:20:34Z</time>
      </trkpt>
      <trkpt lat="47.24005" lon="-1.4679">
        <ele>4.09</ele>
        <time>2024-01-11T11:21:06Z</time>
      </trkpt>
      <trkpt lat="47.2402" lon="-1.46772">
        <ele>4</ele>
        <time>2024-01-11T11:21:26Z</time>
      </trkpt>
      <trkpt lat="47.24036" lon="-1.46757">
        <ele>4</ele>
        <time>2024-01-11T11:21:50Z</time>
      </trkpt>
      <trkpt lat="47.24053" lon="-1.4674">
        <ele>4</ele>
        <time>2024-01-11T11:22:14Z</time>
      </trkpt>
      <trkpt lat="47.24067" lon="-1.46719">
        <ele>4</ele>
        <time>2024-01-11T11:22:38Z</time>
      </trkpt>
      <trkpt lat="47.2408" lon="-1.46697">
        <ele>4</ele>
        <time>2024-01-11T11:23:10Z</time>
      </trkpt>
      <trkpt lat="47.2409" lon="-1.46674">
        <ele>4</ele>
        <time>2024-01-11T11:23:34Z</time>
      </trkpt>
      <trkpt lat="47.24106" lon="-1.46655">
        <ele>4</ele>
        <time>2024-01-11T11:23:54Z</time>
      </trkpt>
      <trkpt lat="47.2412" lon="-1.46636">
        <ele>4</ele>
        <time>2024-01-11T11:24:11Z</time>
      </trkpt>
      <trkpt lat="47.24137" lon="-1.46625">
        <ele>4</ele>
        <time>2024-01-11T11:24:59Z</time>
      </trkpt>
      <trkpt lat="47.24119" lon="-1.46645">
        <ele>4</ele>
        <time>2024-01-11T11:26:11Z</time>
      </trkpt>
      <trkpt lat="47.24105" lon="-1.46662">
        <ele>4</ele>
        <time>2024-01-11T11:26:27Z</time>
      </trkpt>
      <trkpt lat="47.2409" lon="-1.46682">
        <ele>4</ele>
        <time>2024-01-11T11:26:47Z</time>
      </trkpt>
      <trkpt lat="47.24074" lon="-1.46693">
        <ele>4</ele>
        <time>2024-01-11T11:27:11Z</time>
      </trkpt>
      <trkpt lat="47.24062" lon="-1.46707">
        <ele>4</ele>
        <time>2024-01-11T12:21:22Z</time>
      </trkpt>
      <trkpt lat="47.24078" lon="-1.4669">
        <ele>4</ele>
        <time>2024-01-11T12:22:10Z</time>
      </trkpt>
      <trkpt lat="47.24096" lon="-1.46672">
        <ele>4</ele>
        <time>2024-01-11T12:22:26Z</time>
      </trkpt>
      <trkpt lat="47.24113" lon="-1.46649">
        <ele>4</ele>
        <time>2024-01-11T12:22:42Z</time>
      </trkpt>
      <trkpt lat="47.24128" lon="-1.46627">
        <ele>4</ele>
        <time>2024-01-11T12:22:58Z</time>
      </trkpt>
      <trkpt lat="47.24144" lon="-1.46609">
        <ele>4</ele>
        <time>2024-01-11T12:23:10Z</time>
      </trkpt>
      <trkpt lat="47.24157" lon="-1.46589">
        <ele>4</ele>
        <time>2024-01-11T12:23:22Z</time>
      </trkpt>
      <trkpt lat="47.24172" lon="-1.46567">
        <ele>4</ele>
        <time>2024-01-11T12:23:38Z</time>
      </trkpt>
      <trkpt lat="47.24188" lon="-1.46544">
        <ele>4</ele>
        <time>2024-01-11T12:23:54Z</time>
      </trkpt>
      <trkpt lat="47.24204" lon="-1.46526">
        <ele>4</ele>
        <time>2024-01-11T12:24:06Z</time>
      </trkpt>
      <trkpt lat="47.24218" lon="-1.46509">
        <ele>4</ele>
        <time>2024-01-11T12:24:18Z</time>
      </trkpt>
      <trkpt lat="47.24236" lon="-1.46488">
        <ele>4.91</ele>
        <time>2024-01-11T12:24:34Z</time>
      </trkpt>
      <trkpt lat="47.24254" lon="-1.46468">
        <ele>5</ele>
        <time>2024-01-11T12:24:50Z</time>
      </trkpt>
      <trkpt lat="47.24269" lon="-1.46446">
        <ele>5</ele>
        <time>2024-01-11T12:25:06Z</time>
      </trkpt>
      <trkpt lat="47.24282" lon="-1.46421">
        <ele>5</ele>
        <time>2024-01-11T12:25:22Z</time>
      </trkpt>
      <trkpt lat="47.24298" lon="-1.46395">
        <ele>5</ele>
        <time>2024-01-11T12:25:38Z</time>
      </trkpt>
      <trkpt lat="47.24314" lon="-1.46372">
        <ele>5</ele>
        <time>2024-01-11T12:25:54Z</time>
      </trkpt>
      <trkpt lat="47.24326" lon="-1.46351">
        <ele>5</ele>
        <time>2024-01-11T12:26:06Z</time>
      </trkpt>
      <trkpt lat="47.24337" lon="-1.46329">
        <ele>5.7</ele>
        <time>2024-01-11T12:26:18Z</time>
      </trkpt>
      <trkpt lat="47.24351" lon="-1.46309">
        <ele>5.99</ele>
        <time>2024-01-11T12:26:30Z</time>
      </trkpt>
      <trkpt lat="47.24368" lon="-1.46286">
        <ele>6</ele>
        <time>2024-01-11T12:26:46Z</time>
      </trkpt>
      <trkpt lat="47.24386" lon="-1.46266">
        <ele>6</ele>
        <time>2024-01-11T12:27:02Z</time>
      </trkpt>
      <trkpt lat="47.24403" lon="-1.46242">
        <ele>6</ele>
        <time>2024-01-11T12:27:18Z</time>
      </trkpt>
      <trkpt lat="47.24419" lon="-1.46216">
        <ele>6.7</ele>
        <time>2024-01-11T12:27:34Z</time>
      </trkpt>
      <trkpt lat="47.24437" lon="-1.46188">
        <ele>7</ele>
        <time>2024-01-11T12:27:58Z</time>
      </trkpt>
      <trkpt lat="47.24454" lon="-1.4617">
        <ele>7</ele>
        <time>2024-01-11T12:28:10Z</time>
      </trkpt>
      <trkpt lat="47.24469" lon="-1.46154">
        <ele>6.03</ele>
        <time>2024-01-11T12:28:22Z</time>
      </trkpt>
      <trkpt lat="47.24485" lon="-1.46129">
        <ele>6</ele>
        <time>2024-01-11T12:28:42Z</time>
      </trkpt>
      <trkpt lat="47.245" lon="-1.46109">
        <ele>4.6</ele>
        <time>2024-01-11T12:28:54Z</time>
      </trkpt>
      <trkpt lat="47.24514" lon="-1.46091">
        <ele>4.02</ele>
        <time>2024-01-11T12:29:06Z</time>
      </trkpt>
      <trkpt lat="47.2453" lon="-1.46066">
        <ele>4.97</ele>
        <time>2024-01-11T12:29:22Z</time>
      </trkpt>
      <trkpt lat="47.24544" lon="-1.46041">
        <ele>5</ele>
        <time>2024-01-11T12:29:38Z</time>
      </trkpt>
      <trkpt lat="47.24555" lon="-1.46015">
        <ele>5</ele>
        <time>2024-01-11T12:29:54Z</time>
      </trkpt>
      <trkpt lat="47.24566" lon="-1.45993">
        <ele>5.91</ele>
        <time>2024-01-11T12:30:10Z</time>
      </trkpt>
      <trkpt lat="47.24577" lon="-1.45969">
        <ele>6</ele>
        <time>2024-01-11T12:30:22Z</time>
      </trkpt>
      <trkpt lat="47.24588" lon="-1.45947">
        <ele>8.73</ele>
        <time>2024-01-11T12:30:34Z</time>
      </trkpt>
      <trkpt lat="47.24601" lon="-1.45923">
        <ele>8.99</ele>
        <time>2024-01-11T12:30:46Z</time>
      </trkpt>
      <trkpt lat="47.24612" lon="-1.45894">
        <ele>7.05</ele>
        <time>2024-01-11T12:31:02Z</time>
      </trkpt>
      <trkpt lat="47.24622" lon="-1.4587">
        <ele>7</ele>
        <time>2024-01-11T12:31:14Z</time>
      </trkpt>
      <trkpt lat="47.24629" lon="-1.45843">
        <ele>7</ele>
        <time>2024-01-11T12:31:30Z</time>
      </trkpt>
      <trkpt lat="47.24635" lon="-1.45817">
        <ele>5.18</ele>
        <time>2024-01-11T12:31:42Z</time>
      </trkpt>
      <trkpt lat="47.24642" lon="-1.45787">
        <ele>5</ele>
        <time>2024-01-11T12:31:58Z</time>
      </trkpt>
      <trkpt lat="47.24648" lon="-1.45762">
        <ele>5</ele>
        <time>2024-01-11T12:32:14Z</time>
      </trkpt>
      <trkpt lat="47.24654" lon="-1.45736">
        <ele>5</ele>
        <time>2024-01-11T12:32:30Z</time>
      </trkpt>
      <trkpt lat="47.24663" lon="-1.4571">
        <ele>5</ele>
        <time>2024-01-11T12:32:46Z</time>
      </trkpt>
      <trkpt lat="47.2467" lon="-1.45685">
        <ele>4.09</ele>
        <time>2024-01-11T12:33:02Z</time>
      </trkpt>
      <trkpt lat="47.24681" lon="-1.45662">
        <ele>5.4</ele>
        <time>2024-01-11T12:33:18Z</time>
      </trkpt>
      <trkpt lat="47.2469" lon="-1.45636">
        <ele>6</ele>
        <time>2024-01-11T12:33:34Z</time>
      </trkpt>
      <trkpt lat="47.24697" lon="-1.45608">
        <ele>6</ele>
        <time>2024-01-11T12:33:50Z</time>
      </trkpt>
      <trkpt lat="47.24705" lon="-1.45579">
        <ele>5.3</ele>
        <time>2024-01-11T12:34:06Z</time>
      </trkpt>
      <trkpt lat="47.24714" lon="-1.45551">
        <ele>5</ele>
        <time>2024-01-11T12:34:22Z</time>
      </trkpt>
      <trkpt lat="47.24725" lon="-1.45525">
        <ele>5</ele>
        <time>2024-01-11T12:34:38Z</time>
      </trkpt>
      <trkpt lat="47.24734" lon="-1.45501">
        <ele>5</ele>
        <time>2024-01-11T12:34:54Z</time>
      </trkpt>
      <trkpt lat="47.24744" lon="-1.45477">
        <ele>4.01</ele>
        <time>2024-01-11T12:35:10Z</time>
      </trkpt>
      <trkpt lat="47.24754" lon="-1.4545">
        <ele>4</ele>
        <time>2024-01-11T12:35:26Z</time>
      </trkpt>
      <trkpt lat="47.24765" lon="-1.45422">
        <ele>4</ele>
        <time>2024-01-11T12:35:42Z</time>
      </trkpt>
      <trkpt lat="47.24775" lon="-1.45395">
        <ele>4.99</ele>
        <time>2024-01-11T12:35:58Z</time>
      </trkpt>
      <trkpt lat="47.24786" lon="-1.45366">
        <ele>5</ele>
        <time>2024-01-11T12:36:14Z</time>
      </trkpt>
      <trkpt lat="47.24797" lon="-1.45341">
        <ele>5</ele>
        <time>2024-01-11T12:36:30Z</time>
      </trkpt>
      <trkpt lat="47.24811" lon="-1.45318">
        <ele>4.03</ele>
        <time>2024-01-11T12:36:46Z</time>
      </trkpt>
      <trkpt lat="47.24821" lon="-1.45293">
        <ele>4</ele>
        <time>2024-01-11T12:37:02Z</time>
      </trkpt>
      <trkpt lat="47.24833" lon="-1.45272">
        <ele>4</ele>
        <time>2024-01-11T12:37:18Z</time>
      </trkpt>
      <trkpt lat="47.24848" lon="-1.45247">
        <ele>4.3</ele>
        <time>2024-01-11T12:37:38Z</time>
      </trkpt>
      <trkpt lat="47.24862" lon="-1.45225">
        <ele>4</ele>
        <time>2024-01-11T12:37:54Z</time>
      </trkpt>
      <trkpt lat="47.24875" lon="-1.45207">
        <ele>4</ele>
        <time>2024-01-11T12:38:07Z</time>
      </trkpt>
      <trkpt lat="47.24887" lon="-1.45187">
        <ele>4</ele>
        <time>2024-01-11T12:38:19Z</time>
      </trkpt>
      <trkpt lat="47.24902" lon="-1.45165">
        <ele>4</ele>
        <time>2024-01-11T12:38:35Z</time>
      </trkpt>
      <trkpt lat="47.24918" lon="-1.45147">
        <ele>4.7</ele>
        <time>2024-01-11T12:38:51Z</time>
      </trkpt>
      <trkpt lat="47.24933" lon="-1.45133">
        <ele>4.99</ele>
        <time>2024-01-11T12:39:03Z</time>
      </trkpt>
      <trkpt lat="47.24952" lon="-1.45113">
        <ele>5</ele>
        <time>2024-01-11T12:39:19Z</time>
      </trkpt>
      <trkpt lat="47.24968" lon="-1.45096">
        <ele>5</ele>
        <time>2024-01-11T12:39:35Z</time>
      </trkpt>
      <trkpt lat="47.24987" lon="-1.45078">
        <ele>5.91</ele>
        <time>2024-01-11T12:39:51Z</time>
      </trkpt>
      <trkpt lat="47.25003" lon="-1.45056">
        <ele>6.7</ele>
        <time>2024-01-11T12:40:07Z</time>
      </trkpt>
      <trkpt lat="47.25021" lon="-1.45039">
        <ele>7</ele>
        <time>2024-01-11T12:40:23Z</time>
      </trkpt>
      <trkpt lat="47.2504" lon="-1.45025">
        <ele>7</ele>
        <time>2024-01-11T12:40:39Z</time>
      </trkpt>
      <trkpt lat="47.25058" lon="-1.45012">
        <ele>7</ele>
        <time>2024-01-11T12:40:55Z</time>
      </trkpt>
      <trkpt lat="47.25075" lon="-1.45002">
        <ele>7</ele>
        <time>2024-01-11T12:41:07Z</time>
      </trkpt>
      <trkpt lat="47.25094" lon="-1.44988">
        <ele>6.01</ele>
        <time>2024-01-11T12:41:23Z</time>
      </trkpt>
      <trkpt lat="47.25111" lon="-1.44969">
        <ele>6</ele>
        <time>2024-01-11T12:41:39Z</time>
      </trkpt>
      <trkpt lat="47.25129" lon="-1.44953">
        <ele>6</ele>
        <time>2024-01-11T12:41:55Z</time>
      </trkpt>
      <trkpt lat="47.25146" lon="-1.44935">
        <ele>6</ele>
        <time>2024-01-11T12:42:11Z</time>
      </trkpt>
      <trkpt lat="47.25167" lon="-1.44918">
        <ele>5.3</ele>
        <time>2024-01-11T12:42:27Z</time>
      </trkpt>
      <trkpt lat="47.25184" lon="-1.44904">
        <ele>5.99</ele>
        <time>2024-01-11T12:42:43Z</time>
      </trkpt>
      <trkpt lat="47.25201" lon="-1.4489">
        <ele>6</ele>
        <time>2024-01-11T12:42:59Z</time>
      </trkpt>
      <trkpt lat="47.2522" lon="-1.44875">
        <ele>6</ele>
        <time>2024-01-11T12:43:15Z</time>
      </trkpt>
      <trkpt lat="47.25239" lon="-1.44856">
        <ele>6</ele>
        <time>2024-01-11T12:43:32Z</time>
      </trkpt>
      <trkpt lat="47.25255" lon="-1.44836">
        <ele>5.09</ele>
        <time>2024-01-11T12:43:48Z</time>
      </trkpt>
      <trkpt lat="47.25273" lon="-1.44816">
        <ele>5.99</ele>
        <time>2024-01-11T12:44:04Z</time>
      </trkpt>
      <trkpt lat="47.25289" lon="-1.44797">
        <ele>6</ele>
        <time>2024-01-11T12:44:20Z</time>
      </trkpt>
      <trkpt lat="47.25302" lon="-1.4478">
        <ele>6</ele>
        <time>2024-01-11T12:44:36Z</time>
      </trkpt>
      <trkpt lat="47.25321" lon="-1.44759">
        <ele>6</ele>
        <time>2024-01-11T12:44:56Z</time>
      </trkpt>
      <trkpt lat="47.2534" lon="-1.44746">
        <ele>5.87</ele>
        <time>2024-01-11T12:45:12Z</time>
      </trkpt>
      <trkpt lat="47.25357" lon="-1.44727">
        <ele>6</ele>
        <time>2024-01-11T12:45:28Z</time>
      </trkpt>
      <trkpt lat="47.25373" lon="-1.44708">
        <ele>6</ele>
        <time>2024-01-11T12:45:44Z</time>
      </trkpt>
      <trkpt lat="47.25389" lon="-1.4469">
        <ele>6</ele>
        <time>2024-01-11T12:46:00Z</time>
      </trkpt>
      <trkpt lat="47.25403" lon="-1.44672">
        <ele>6</ele>
        <time>2024-01-11T12:46:16Z</time>
      </trkpt>
      <trkpt lat="47.25416" lon="-1.44653">
        <ele>6</ele>
        <time>2024-01-11T12:46:32Z</time>
      </trkpt>
      <trkpt lat="47.25431" lon="-1.44632">
        <ele>6.99</ele>
        <time>2024-01-11T12:46:48Z</time>
      </trkpt>
      <trkpt lat="47.25448" lon="-1.44612">
        <ele>7</ele>
        <time>2024-01-11T12:47:04Z</time>
      </trkpt>
      <trkpt lat="47.25462" lon="-1.44592">
        <ele>7</ele>
        <time>2024-01-11T12:47:20Z</time>
      </trkpt>
      <trkpt lat="47.25474" lon="-1.4457">
        <ele>7</ele>
        <time>2024-01-11T12:47:36Z</time>
      </trkpt>
      <trkpt lat="47.25489" lon="-1.44551">
        <ele>7</ele>
        <time>2024-01-11T12:47:52Z</time>
      </trkpt>
      <trkpt lat="47.25502" lon="-1.44531">
        <ele>5.6</ele>
        <time>2024-01-11T12:48:08Z</time>
      </trkpt>
      <trkpt lat="47.25516" lon="-1.44513">
        <ele>5</ele>
        <time>2024-01-11T12:48:24Z</time>
      </trkpt>
      <trkpt lat="47.25532" lon="-1.44494">
        <ele>5.91</ele>
        <time>2024-01-11T12:48:40Z</time>
      </trkpt>
      <trkpt lat="47.25545" lon="-1.44469">
        <ele>6</ele>
        <time>2024-01-11T12:48:56Z</time>
      </trkpt>
      <trkpt lat="47.25557" lon="-1.44449">
        <ele>6</ele>
        <time>2024-01-11T12:49:12Z</time>
      </trkpt>
      <trkpt lat="47.25572" lon="-1.44429">
        <ele>6</ele>
        <time>2024-01-11T12:49:28Z</time>
      </trkpt>
      <trkpt lat="47.25589" lon="-1.44408">
        <ele>4.18</ele>
        <time>2024-01-11T12:49:44Z</time>
      </trkpt>
      <trkpt lat="47.25605" lon="-1.44389">
        <ele>4</ele>
        <time>2024-01-11T12:50:01Z</time>
      </trkpt>
      <trkpt lat="47.25621" lon="-1.44369">
        <ele>4</ele>
        <time>2024-01-11T12:50:17Z</time>
      </trkpt>
      <trkpt lat="47.25639" lon="-1.44349">
        <ele>4</ele>
        <time>2024-01-11T12:50:37Z</time>
      </trkpt>
      <trkpt lat="47.25656" lon="-1.44336">
        <ele>4</ele>
        <time>2024-01-11T12:50:53Z</time>
      </trkpt>
      <trkpt lat="47.25672" lon="-1.44319">
        <ele>5.98</ele>
        <time>2024-01-11T12:51:09Z</time>
      </trkpt>
      <trkpt lat="47.25689" lon="-1.44297">
        <ele>6</ele>
        <time>2024-01-11T12:51:26Z</time>
      </trkpt>
      <trkpt lat="47.25704" lon="-1.44277">
        <ele>6</ele>
        <time>2024-01-11T12:51:42Z</time>
      </trkpt>
      <trkpt lat="47.25718" lon="-1.4426">
        <ele>6</ele>
        <time>2024-01-11T12:51:58Z</time>
      </trkpt>
      <trkpt lat="47.25735" lon="-1.44241">
        <ele>6</ele>
        <time>2024-01-11T12:52:14Z</time>
      </trkpt>
      <trkpt lat="47.25749" lon="-1.4422">
        <ele>6</ele>
        <time>2024-01-11T12:52:30Z</time>
      </trkpt>
      <trkpt lat="47.25765" lon="-1.44204">
        <ele>4.02</ele>
        <time>2024-01-11T12:52:46Z</time>
      </trkpt>
      <trkpt lat="47.25778" lon="-1.44183">
        <ele>4</ele>
        <time>2024-01-11T12:53:02Z</time>
      </trkpt>
      <trkpt lat="47.25794" lon="-1.44166">
        <ele>4.7</ele>
        <time>2024-01-11T12:53:18Z</time>
      </trkpt>
      <trkpt lat="47.25811" lon="-1.44146">
        <ele>5</ele>
        <time>2024-01-11T12:53:38Z</time>
      </trkpt>
      <trkpt lat="47.25828" lon="-1.44125">
        <ele>5</ele>
        <time>2024-01-11T12:53:58Z</time>
      </trkpt>
      <trkpt lat="47.25846" lon="-1.44108">
        <ele>9.96</ele>
        <time>2024-01-11T12:54:14Z</time>
      </trkpt>
      <trkpt lat="47.2586" lon="-1.44088">
        <ele>10</ele>
        <time>2024-01-11T12:54:30Z</time>
      </trkpt>
      <trkpt lat="47.25872" lon="-1.44061">
        <ele>7.02</ele>
        <time>2024-01-11T12:54:46Z</time>
      </trkpt>
      <trkpt lat="47.25884" lon="-1.44036">
        <ele>7</ele>
        <time>2024-01-11T12:55:02Z</time>
      </trkpt>
      <trkpt lat="47.25898" lon="-1.44017">
        <ele>7</ele>
        <time>2024-01-11T12:55:18Z</time>
      </trkpt>
      <trkpt lat="47.25916" lon="-1.43997">
        <ele>5.6</ele>
        <time>2024-01-11T12:55:38Z</time>
      </trkpt>
      <trkpt lat="47.25929" lon="-1.43978">
        <ele>5</ele>
        <time>2024-01-11T12:55:54Z</time>
      </trkpt>
      <trkpt lat="47.25947" lon="-1.43954">
        <ele>5</ele>
        <time>2024-01-11T12:56:10Z</time>
      </trkpt>
      <trkpt lat="47.25966" lon="-1.43935">
        <ele>5</ele>
        <time>2024-01-11T12:56:26Z</time>
      </trkpt>
      <trkpt lat="47.25983" lon="-1.43915">
        <ele>4.3</ele>
        <time>2024-01-11T12:56:42Z</time>
      </trkpt>
      <trkpt lat="47.26" lon="-1.43898">
        <ele>4.7</ele>
        <time>2024-01-11T12:56:58Z</time>
      </trkpt>
      <trkpt lat="47.26016" lon="-1.43879">
        <ele>5</ele>
        <time>2024-01-11T12:57:14Z</time>
      </trkpt>
      <trkpt lat="47.26031" lon="-1.43854">
        <ele>5</ele>
        <time>2024-01-11T12:57:34Z</time>
      </trkpt>
      <trkpt lat="47.26044" lon="-1.43825">
        <ele>5</ele>
        <time>2024-01-11T12:57:50Z</time>
      </trkpt>
      <trkpt lat="47.26059" lon="-1.43803">
        <ele>5</ele>
        <time>2024-01-11T12:58:02Z</time>
      </trkpt>
      <trkpt lat="47.26077" lon="-1.43786">
        <ele>5</ele>
        <time>2024-01-11T12:58:18Z</time>
      </trkpt>
      <trkpt lat="47.26093" lon="-1.43764">
        <ele>7.92</ele>
        <time>2024-01-11T12:58:34Z</time>
      </trkpt>
      <trkpt lat="47.26109" lon="-1.43741">
        <ele>8</ele>
        <time>2024-01-11T12:58:54Z</time>
      </trkpt>
      <trkpt lat="47.26121" lon="-1.4372">
        <ele>8</ele>
        <time>2024-01-11T12:59:10Z</time>
      </trkpt>
      <trkpt lat="47.26131" lon="-1.43694">
        <ele>8</ele>
        <time>2024-01-11T12:59:26Z</time>
      </trkpt>
      <trkpt lat="47.26145" lon="-1.43669">
        <ele>8</ele>
        <time>2024-01-11T12:59:42Z</time>
      </trkpt>
      <trkpt lat="47.26155" lon="-1.43643">
        <ele>4.03</ele>
        <time>2024-01-11T12:59:58Z</time>
      </trkpt>
      <trkpt lat="47.26169" lon="-1.43622">
        <ele>6.92</ele>
        <time>2024-01-11T13:00:26Z</time>
      </trkpt>
      <trkpt lat="47.26189" lon="-1.43615">
        <ele>7</ele>
        <time>2024-01-11T13:05:26Z</time>
      </trkpt>
      <trkpt lat="47.26204" lon="-1.4359">
        <ele>7</ele>
        <time>2024-01-11T13:05:46Z</time>
      </trkpt>
      <trkpt lat="47.26216" lon="-1.43568">
        <ele>6.01</ele>
        <time>2024-01-11T13:06:06Z</time>
      </trkpt>
      <trkpt lat="47.26214" lon="-1.43541">
        <ele>6</ele>
        <time>2024-01-11T13:06:26Z</time>
      </trkpt>
      <trkpt lat="47.26231" lon="-1.43524">
        <ele>6</ele>
        <time>2024-01-11T13:06:46Z</time>
      </trkpt>
      <trkpt lat="47.26245" lon="-1.43507">
        <ele>6</ele>
        <time>2024-01-11T13:07:02Z</time>
      </trkpt>
      <trkpt lat="47.26264" lon="-1.43491">
        <ele>4.26</ele>
        <time>2024-01-11T13:07:22Z</time>
      </trkpt>
      <trkpt lat="47.26281" lon="-1.4348">
        <ele>4</ele>
        <time>2024-01-11T13:07:42Z</time>
      </trkpt>
      <trkpt lat="47.26298" lon="-1.4346">
        <ele>4</ele>
        <time>2024-01-11T13:08:02Z</time>
      </trkpt>
      <trkpt lat="47.26317" lon="-1.43444">
        <ele>4</ele>
        <time>2024-01-11T13:08:22Z</time>
      </trkpt>
      <trkpt lat="47.26335" lon="-1.43428">
        <ele>4.7</ele>
        <time>2024-01-11T13:08:42Z</time>
      </trkpt>
      <trkpt lat="47.26353" lon="-1.43411">
        <ele>5.91</ele>
        <time>2024-01-11T13:09:02Z</time>
      </trkpt>
      <trkpt lat="47.26368" lon="-1.43395">
        <ele>6</ele>
        <time>2024-01-11T13:09:18Z</time>
      </trkpt>
      <trkpt lat="47.26383" lon="-1.43381">
        <ele>6</ele>
        <time>2024-01-11T13:09:34Z</time>
      </trkpt>
      <trkpt lat="47.26398" lon="-1.43362">
        <ele>6</ele>
        <time>2024-01-11T13:09:50Z</time>
      </trkpt>
      <trkpt lat="47.26412" lon="-1.43343">
        <ele>6</ele>
        <time>2024-01-11T13:10:06Z</time>
      </trkpt>
      <trkpt lat="47.26429" lon="-1.43329">
        <ele>6.27</ele>
        <time>2024-01-11T13:10:22Z</time>
      </trkpt>
      <trkpt lat="47.26442" lon="-1.43305">
        <ele>6</ele>
        <time>2024-01-11T13:10:42Z</time>
      </trkpt>
      <trkpt lat="47.26458" lon="-1.43288">
        <ele>6</ele>
        <time>2024-01-11T13:10:58Z</time>
      </trkpt>
      <trkpt lat="47.26472" lon="-1.43267">
        <ele>6</ele>
        <time>2024-01-11T13:11:14Z</time>
      </trkpt>
      <trkpt lat="47.26482" lon="-1.43244">
        <ele>5.3</ele>
        <time>2024-01-11T13:11:30Z</time>
      </trkpt>
      <trkpt lat="47.26498" lon="-1.43231">
        <ele>5.01</ele>
        <time>2024-01-11T13:11:42Z</time>
      </trkpt>
      <trkpt lat="47.26509" lon="-1.43206">
        <ele>6.98</ele>
        <time>2024-01-11T13:11:58Z</time>
      </trkpt>
      <trkpt lat="47.26523" lon="-1.43187">
        <ele>7</ele>
        <time>2024-01-11T13:12:14Z</time>
      </trkpt>
      <trkpt lat="47.26543" lon="-1.43168">
        <ele>7</ele>
        <time>2024-01-11T13:12:30Z</time>
      </trkpt>
      <trkpt lat="47.26554" lon="-1.43146">
        <ele>5.02</ele>
        <time>2024-01-11T13:12:46Z</time>
      </trkpt>
      <trkpt lat="47.26568" lon="-1.43126">
        <ele>5</ele>
        <time>2024-01-11T13:13:06Z</time>
      </trkpt>
      <trkpt lat="47.26585" lon="-1.43103">
        <ele>5.7</ele>
        <time>2024-01-11T13:13:22Z</time>
      </trkpt>
      <trkpt lat="47.26596" lon="-1.43079">
        <ele>6</ele>
        <time>2024-01-11T13:13:38Z</time>
      </trkpt>
      <trkpt lat="47.26609" lon="-1.43061">
        <ele>6</ele>
        <time>2024-01-11T13:13:50Z</time>
      </trkpt>
      <trkpt lat="47.26621" lon="-1.43038">
        <ele>6</ele>
        <time>2024-01-11T13:14:06Z</time>
      </trkpt>
      <trkpt lat="47.2663" lon="-1.43015">
        <ele>6</ele>
        <time>2024-01-11T13:14:22Z</time>
      </trkpt>
      <trkpt lat="47.26644" lon="-1.42991">
        <ele>6</ele>
        <time>2024-01-11T13:14:38Z</time>
      </trkpt>
      <trkpt lat="47.26656" lon="-1.42964">
        <ele>6</ele>
        <time>2024-01-11T13:14:54Z</time>
      </trkpt>
      <trkpt lat="47.26669" lon="-1.42938">
        <ele>6</ele>
        <time>2024-01-11T13:15:10Z</time>
      </trkpt>
      <trkpt lat="47.26678" lon="-1.42907">
        <ele>6.91</ele>
        <time>2024-01-11T13:15:26Z</time>
      </trkpt>
      <trkpt lat="47.26691" lon="-1.42885">
        <ele>7</ele>
        <time>2024-01-11T13:15:42Z</time>
      </trkpt>
      <trkpt lat="47.26701" lon="-1.42855">
        <ele>7</ele>
        <time>2024-01-11T13:16:02Z</time>
      </trkpt>
      <trkpt lat="47.26713" lon="-1.42825">
        <ele>5.18</ele>
        <time>2024-01-11T13:16:18Z</time>
      </trkpt>
      <trkpt lat="47.26724" lon="-1.42804">
        <ele>5</ele>
        <time>2024-01-11T13:16:34Z</time>
      </trkpt>
      <trkpt lat="47.2673" lon="-1.42776">
        <ele>5</ele>
        <time>2024-01-11T13:16:50Z</time>
      </trkpt>
      <trkpt lat="47.26746" lon="-1.42753">
        <ele>5</ele>
        <time>2024-01-11T13:17:06Z</time>
      </trkpt>
      <trkpt lat="47.26759" lon="-1.42731">
        <ele>6.93</ele>
        <time>2024-01-11T13:17:22Z</time>
      </trkpt>
      <trkpt lat="47.26773" lon="-1.42708">
        <ele>7</ele>
        <time>2024-01-11T13:17:38Z</time>
      </trkpt>
      <trkpt lat="47.26781" lon="-1.42681">
        <ele>7</ele>
        <time>2024-01-11T13:17:54Z</time>
      </trkpt>
      <trkpt lat="47.2679" lon="-1.42652">
        <ele>6.03</ele>
        <time>2024-01-11T13:18:10Z</time>
      </trkpt>
      <trkpt lat="47.26801" lon="-1.42626">
        <ele>6</ele>
        <time>2024-01-11T13:18:26Z</time>
      </trkpt>
      <trkpt lat="47.26811" lon="-1.42601">
        <ele>6</ele>
        <time>2024-01-11T13:18:42Z</time>
      </trkpt>
      <trkpt lat="47.26822" lon="-1.42575">
        <ele>5.09</ele>
        <time>2024-01-11T13:18:58Z</time>
      </trkpt>
      <trkpt lat="47.26833" lon="-1.4255">
        <ele>5</ele>
        <time>2024-01-11T13:19:14Z</time>
      </trkpt>
      <trkpt lat="47.26843" lon="-1.42524">
        <ele>5</ele>
        <time>2024-01-11T13:19:30Z</time>
      </trkpt>
      <trkpt lat="47.26856" lon="-1.42502">
        <ele>5</ele>
        <time>2024-01-11T13:19:46Z</time>
      </trkpt>
      <trkpt lat="47.26867" lon="-1.4248">
        <ele>4.01</ele>
        <time>2024-01-11T13:20:02Z</time>
      </trkpt>
      <trkpt lat="47.2688" lon="-1.42457">
        <ele>4</ele>
        <time>2024-01-11T13:20:18Z</time>
      </trkpt>
      <trkpt lat="47.26894" lon="-1.42433">
        <ele>4</ele>
        <time>2024-01-11T13:20:34Z</time>
      </trkpt>
      <trkpt lat="47.26907" lon="-1.42409">
        <ele>4</ele>
        <time>2024-01-11T13:20:50Z</time>
      </trkpt>
      <trkpt lat="47.2692" lon="-1.42386">
        <ele>1.27</ele>
        <time>2024-01-11T13:21:06Z</time>
      </trkpt>
      <trkpt lat="47.26932" lon="-1.42364">
        <ele>1</ele>
        <time>2024-01-11T13:21:22Z</time>
      </trkpt>
      <trkpt lat="47.26944" lon="-1.42342">
        <ele>1</ele>
        <time>2024-01-11T13:21:38Z</time>
      </trkpt>
      <trkpt lat="47.26955" lon="-1.42318">
        <ele>2.95</ele>
        <time>2024-01-11T13:21:54Z</time>
      </trkpt>
      <trkpt lat="47.26969" lon="-1.42292">
        <ele>3</ele>
        <time>2024-01-11T13:22:10Z</time>
      </trkpt>
      <trkpt lat="47.26981" lon="-1.42268">
        <ele>3</ele>
        <time>2024-01-11T13:22:27Z</time>
      </trkpt>
      <trkpt lat="47.26993" lon="-1.42242">
        <ele>3</ele>
        <time>2024-01-11T13:22:47Z</time>
      </trkpt>
      <trkpt lat="47.27006" lon="-1.42217">
        <ele>3</ele>
        <time>2024-01-11T13:23:03Z</time>
      </trkpt>
      <trkpt lat="47.27018" lon="-1.42195">
        <ele>3</ele>
        <time>2024-01-11T13:23:19Z</time>
      </trkpt>
      <trkpt lat="47.27034" lon="-1.42176">
        <ele>3</ele>
        <time>2024-01-11T13:23:35Z</time>
      </trkpt>
      <trkpt lat="47.27048" lon="-1.42151">
        <ele>3</ele>
        <time>2024-01-11T13:23:51Z</time>
      </trkpt>
      <trkpt lat="47.2706" lon="-1.42128">
        <ele>3</ele>
        <time>2024-01-11T13:24:07Z</time>
      </trkpt>
      <trkpt lat="47.27069" lon="-1.421">
        <ele>3</ele>
        <time>2024-01-11T13:24:23Z</time>
      </trkpt>
      <trkpt lat="47.27083" lon="-1.42076">
        <ele>3</ele>
        <time>2024-01-11T13:24:39Z</time>
      </trkpt>
      <trkpt lat="47.27098" lon="-1.42056">
        <ele>3.99</ele>
        <time>2024-01-11T13:24:55Z</time>
      </trkpt>
      <trkpt lat="47.27113" lon="-1.42034">
        <ele>4</ele>
        <time>2024-01-11T13:25:11Z</time>
      </trkpt>
      <trkpt lat="47.27126" lon="-1.42013">
        <ele>4</ele>
        <time>2024-01-11T13:25:27Z</time>
      </trkpt>
      <trkpt lat="47.2714" lon="-1.4199">
        <ele>4</ele>
        <time>2024-01-11T13:25:43Z</time>
      </trkpt>
      <trkpt lat="47.27153" lon="-1.41968">
        <ele>4</ele>
        <time>2024-01-11T13:25:59Z</time>
      </trkpt>
      <trkpt lat="47.27164" lon="-1.41943">
        <ele>4</ele>
        <time>2024-01-11T13:26:15Z</time>
      </trkpt>
      <trkpt lat="47.27179" lon="-1.41922">
        <ele>3.01</ele>
        <time>2024-01-11T13:26:31Z</time>
      </trkpt>
      <trkpt lat="47.27191" lon="-1.41901">
        <ele>3</ele>
        <time>2024-01-11T13:26:47Z</time>
      </trkpt>
      <trkpt lat="47.27204" lon="-1.41877">
        <ele>3</ele>
        <time>2024-01-11T13:27:03Z</time>
      </trkpt>
      <trkpt lat="47.27216" lon="-1.41854">
        <ele>3</ele>
        <time>2024-01-11T13:27:19Z</time>
      </trkpt>
      <trkpt lat="47.27229" lon="-1.41835">
        <ele>3</ele>
        <time>2024-01-11T13:27:35Z</time>
      </trkpt>
      <trkpt lat="47.27241" lon="-1.4181">
        <ele>2.01</ele>
        <time>2024-01-11T13:27:51Z</time>
      </trkpt>
      <trkpt lat="47.27255" lon="-1.41787">
        <ele>3.82</ele>
        <time>2024-01-11T13:28:07Z</time>
      </trkpt>
      <trkpt lat="47.27266" lon="-1.41763">
        <ele>4</ele>
        <time>2024-01-11T13:28:23Z</time>
      </trkpt>
      <trkpt lat="47.2728" lon="-1.41739">
        <ele>4</ele>
        <time>2024-01-11T13:28:39Z</time>
      </trkpt>
      <trkpt lat="47.27293" lon="-1.41713">
        <ele>4</ele>
        <time>2024-01-11T13:28:55Z</time>
      </trkpt>
      <trkpt lat="47.27303" lon="-1.41688">
        <ele>4</ele>
        <time>2024-01-11T13:29:15Z</time>
      </trkpt>
      <trkpt lat="47.27315" lon="-1.41666">
        <ele>4</ele>
        <time>2024-01-11T13:29:27Z</time>
      </trkpt>
      <trkpt lat="47.27333" lon="-1.41647">
        <ele>4</ele>
        <time>2024-01-11T13:29:43Z</time>
      </trkpt>
      <trkpt lat="47.27348" lon="-1.41623">
        <ele>4.99</ele>
        <time>2024-01-11T13:29:59Z</time>
      </trkpt>
      <trkpt lat="47.27362" lon="-1.41602">
        <ele>5</ele>
        <time>2024-01-11T13:30:15Z</time>
      </trkpt>
      <trkpt lat="47.27377" lon="-1.41579">
        <ele>5</ele>
        <time>2024-01-11T13:30:31Z</time>
      </trkpt>
      <trkpt lat="47.27391" lon="-1.41554">
        <ele>5</ele>
        <time>2024-01-11T13:30:51Z</time>
      </trkpt>
      <trkpt lat="47.27407" lon="-1.4153">
        <ele>5</ele>
        <time>2024-01-11T13:31:07Z</time>
      </trkpt>
      <trkpt lat="47.27419" lon="-1.41509">
        <ele>5</ele>
        <time>2024-01-11T13:31:23Z</time>
      </trkpt>
      <trkpt lat="47.27433" lon="-1.41485">
        <ele>5.97</ele>
        <time>2024-01-11T13:31:39Z</time>
      </trkpt>
      <trkpt lat="47.27448" lon="-1.41464">
        <ele>6</ele>
        <time>2024-01-11T13:31:55Z</time>
      </trkpt>
      <trkpt lat="47.27458" lon="-1.41438">
        <ele>6</ele>
        <time>2024-01-11T13:32:11Z</time>
      </trkpt>
      <trkpt lat="47.2747" lon="-1.41414">
        <ele>5.3</ele>
        <time>2024-01-11T13:32:27Z</time>
      </trkpt>
      <trkpt lat="47.27485" lon="-1.4139">
        <ele>5</ele>
        <time>2024-01-11T13:32:43Z</time>
      </trkpt>
      <trkpt lat="47.27497" lon="-1.4137">
        <ele>5</ele>
        <time>2024-01-11T13:32:59Z</time>
      </trkpt>
      <trkpt lat="47.27514" lon="-1.4135">
        <ele>5</ele>
        <time>2024-01-11T13:33:15Z</time>
      </trkpt>
      <trkpt lat="47.27527" lon="-1.41328">
        <ele>4.3</ele>
        <time>2024-01-11T13:33:31Z</time>
      </trkpt>
      <trkpt lat="47.2754" lon="-1.41307">
        <ele>4</ele>
        <time>2024-01-11T13:33:47Z</time>
      </trkpt>
      <trkpt lat="47.27555" lon="-1.41287">
        <ele>4</ele>
        <time>2024-01-11T13:34:03Z</time>
      </trkpt>
      <trkpt lat="47.27572" lon="-1.4127">
        <ele>4</ele>
        <time>2024-01-11T13:34:19Z</time>
      </trkpt>
      <trkpt lat="47.27589" lon="-1.41251">
        <ele>4.91</ele>
        <time>2024-01-11T13:34:35Z</time>
      </trkpt>
      <trkpt lat="47.27605" lon="-1.41234">
        <ele>4.01</ele>
        <time>2024-01-11T13:34:51Z</time>
      </trkpt>
      <trkpt lat="47.27622" lon="-1.41215">
        <ele>4</ele>
        <time>2024-01-11T13:35:07Z</time>
      </trkpt>
      <trkpt lat="47.27639" lon="-1.41199">
        <ele>4</ele>
        <time>2024-01-11T13:35:23Z</time>
      </trkpt>
      <trkpt lat="47.27657" lon="-1.41182">
        <ele>4</ele>
        <time>2024-01-11T13:35:40Z</time>
      </trkpt>
      <trkpt lat="47.27674" lon="-1.41164">
        <ele>4.49</ele>
        <time>2024-01-11T13:35:56Z</time>
      </trkpt>
      <trkpt lat="47.2769" lon="-1.41144">
        <ele>5</ele>
        <time>2024-01-11T13:36:12Z</time>
      </trkpt>
      <trkpt lat="47.27706" lon="-1.41126">
        <ele>5</ele>
        <time>2024-01-11T13:36:28Z</time>
      </trkpt>
      <trkpt lat="47.27722" lon="-1.41109">
        <ele>5</ele>
        <time>2024-01-11T13:36:44Z</time>
      </trkpt>
      <trkpt lat="47.27739" lon="-1.41094">
        <ele>5</ele>
        <time>2024-01-11T13:37:00Z</time>
      </trkpt>
      <trkpt lat="47.27755" lon="-1.41076">
        <ele>5.91</ele>
        <time>2024-01-11T13:37:16Z</time>
      </trkpt>
      <trkpt lat="47.27769" lon="-1.41053">
        <ele>6</ele>
        <time>2024-01-11T13:37:32Z</time>
      </trkpt>
      <trkpt lat="47.27777" lon="-1.41026">
        <ele>6</ele>
        <time>2024-01-11T13:37:48Z</time>
      </trkpt>
      <trkpt lat="47.27792" lon="-1.41003">
        <ele>6</ele>
        <time>2024-01-11T13:38:04Z</time>
      </trkpt>
      <trkpt lat="47.27809" lon="-1.40979">
        <ele>6</ele>
        <time>2024-01-11T13:38:24Z</time>
      </trkpt>
      <trkpt lat="47.27821" lon="-1.40953">
        <ele>6</ele>
        <time>2024-01-11T13:38:40Z</time>
      </trkpt>
      <trkpt lat="47.27834" lon="-1.40931">
        <ele>4.6</ele>
        <time>2024-01-11T13:38:56Z</time>
      </trkpt>
      <trkpt lat="47.27845" lon="-1.40907">
        <ele>5.82</ele>
        <time>2024-01-11T13:39:12Z</time>
      </trkpt>
      <trkpt lat="47.27859" lon="-1.40885">
        <ele>6</ele>
        <time>2024-01-11T13:39:28Z</time>
      </trkpt>
      <trkpt lat="47.27869" lon="-1.4086">
        <ele>6</ele>
        <time>2024-01-11T13:39:44Z</time>
      </trkpt>
      <trkpt lat="47.27882" lon="-1.40833">
        <ele>6.7</ele>
        <time>2024-01-11T13:40:00Z</time>
      </trkpt>
      <trkpt lat="47.27898" lon="-1.40816">
        <ele>7</ele>
        <time>2024-01-11T13:40:16Z</time>
      </trkpt>
      <trkpt lat="47.27915" lon="-1.40799">
        <ele>7</ele>
        <time>2024-01-11T13:40:32Z</time>
      </trkpt>
      <trkpt lat="47.27934" lon="-1.40781">
        <ele>6</ele>
        <time>2024-01-11T13:41:13Z</time>
      </trkpt>
      <trkpt lat="47.27952" lon="-1.40762">
        <ele>6</ele>
        <time>2024-01-11T13:41:29Z</time>
      </trkpt>
      <trkpt lat="47.27968" lon="-1.40749">
        <ele>6</ele>
        <time>2024-01-11T13:41:41Z</time>
      </trkpt>
      <trkpt lat="47.27983" lon="-1.40734">
        <ele>6</ele>
        <time>2024-01-11T13:41:53Z</time>
      </trkpt>
      <trkpt lat="47.28001" lon="-1.40717">
        <ele>7.4</ele>
        <time>2024-01-11T13:42:09Z</time>
      </trkpt>
      <trkpt lat="47.28017" lon="-1.40702">
        <ele>7.98</ele>
        <time>2024-01-11T13:42:21Z</time>
      </trkpt>
      <trkpt lat="47.28031" lon="-1.40685">
        <ele>8</ele>
        <time>2024-01-11T13:42:33Z</time>
      </trkpt>
      <trkpt lat="47.28048" lon="-1.40666">
        <ele>8</ele>
        <time>2024-01-11T13:42:49Z</time>
      </trkpt>
      <trkpt lat="47.28066" lon="-1.40649">
        <ele>8</ele>
        <time>2024-01-11T13:43:05Z</time>
      </trkpt>
      <trkpt lat="47.28084" lon="-1.40632">
        <ele>6.6</ele>
        <time>2024-01-11T13:43:21Z</time>
      </trkpt>
      <trkpt lat="47.28102" lon="-1.40618">
        <ele>6</ele>
        <time>2024-01-11T13:43:37Z</time>
      </trkpt>
      <trkpt lat="47.28119" lon="-1.40599">
        <ele>6</ele>
        <time>2024-01-11T13:43:53Z</time>
      </trkpt>
      <trkpt lat="47.28137" lon="-1.40583">
        <ele>6</ele>
        <time>2024-01-11T13:44:09Z</time>
      </trkpt>
      <trkpt lat="47.28153" lon="-1.40565">
        <ele>6</ele>
        <time>2024-01-11T13:44:25Z</time>
      </trkpt>
      <trkpt lat="47.28172" lon="-1.40546">
        <ele>5.3</ele>
        <time>2024-01-11T13:44:41Z</time>
      </trkpt>
      <trkpt lat="47.28188" lon="-1.4053">
        <ele>5.01</ele>
        <time>2024-01-11T13:44:53Z</time>
      </trkpt>
      <trkpt lat="47.28204" lon="-1.40513">
        <ele>5</ele>
        <time>2024-01-11T13:45:09Z</time>
      </trkpt>
      <trkpt lat="47.28221" lon="-1.40501">
        <ele>5</ele>
        <time>2024-01-11T13:45:25Z</time>
      </trkpt>
      <trkpt lat="47.28238" lon="-1.40484">
        <ele>5</ele>
        <time>2024-01-11T13:45:42Z</time>
      </trkpt>
      <trkpt lat="47.28253" lon="-1.40469">
        <ele>5.7</ele>
        <time>2024-01-11T13:45:58Z</time>
      </trkpt>
      <trkpt lat="47.2827" lon="-1.40452">
        <ele>6</ele>
        <time>2024-01-11T13:46:14Z</time>
      </trkpt>
      <trkpt lat="47.28289" lon="-1.40438">
        <ele>6</ele>
        <time>2024-01-11T13:46:30Z</time>
      </trkpt>
      <trkpt lat="47.28306" lon="-1.40422">
        <ele>6</ele>
        <time>2024-01-11T13:46:46Z</time>
      </trkpt>
      <trkpt lat="47.28321" lon="-1.404">
        <ele>5.01</ele>
        <time>2024-01-11T13:47:06Z</time>
      </trkpt>
      <trkpt lat="47.28336" lon="-1.40379">
        <ele>5.91</ele>
        <time>2024-01-11T13:47:26Z</time>
      </trkpt>
      <trkpt lat="47.28354" lon="-1.40362">
        <ele>6</ele>
        <time>2024-01-11T13:47:54Z</time>
      </trkpt>
      <trkpt lat="47.28367" lon="-1.40342">
        <ele>6</ele>
        <time>2024-01-11T13:48:14Z</time>
      </trkpt>
      <trkpt lat="47.2838" lon="-1.40318">
        <ele>4.02</ele>
        <time>2024-01-11T13:48:38Z</time>
      </trkpt>
      <trkpt lat="47.28392" lon="-1.40297">
        <ele>4</ele>
        <time>2024-01-11T13:48:54Z</time>
      </trkpt>
      <trkpt lat="47.28404" lon="-1.40273">
        <ele>4</ele>
        <time>2024-01-11T13:49:14Z</time>
      </trkpt>
      <trkpt lat="47.28416" lon="-1.4025">
        <ele>4</ele>
        <time>2024-01-11T13:49:38Z</time>
      </trkpt>
      <trkpt lat="47.28422" lon="-1.40222">
        <ele>4</ele>
        <time>2024-01-11T13:50:02Z</time>
      </trkpt>
      <trkpt lat="47.28432" lon="-1.402">
        <ele>4</ele>
        <time>2024-01-11T13:50:18Z</time>
      </trkpt>
      <trkpt lat="47.28444" lon="-1.40177">
        <ele>4</ele>
        <time>2024-01-11T13:50:38Z</time>
      </trkpt>
      <trkpt lat="47.28454" lon="-1.40153">
        <ele>4.97</ele>
        <time>2024-01-11T13:50:54Z</time>
      </trkpt>
      <trkpt lat="47.28462" lon="-1.40127">
        <ele>5</ele>
        <time>2024-01-11T13:51:10Z</time>
      </trkpt>
      <trkpt lat="47.28473" lon="-1.40102">
        <ele>5</ele>
        <time>2024-01-11T13:51:30Z</time>
      </trkpt>
      <trkpt lat="47.28483" lon="-1.40079">
        <ele>5</ele>
        <time>2024-01-11T13:51:46Z</time>
      </trkpt>
      <trkpt lat="47.28493" lon="-1.40055">
        <ele>5</ele>
        <time>2024-01-11T13:52:02Z</time>
      </trkpt>
      <trkpt lat="47.28504" lon="-1.40032">
        <ele>5.7</ele>
        <time>2024-01-11T13:52:18Z</time>
      </trkpt>
      <trkpt lat="47.28518" lon="-1.40008">
        <ele>6</ele>
        <time>2024-01-11T13:52:38Z</time>
      </trkpt>
      <trkpt lat="47.28534" lon="-1.39988">
        <ele>5.03</ele>
        <time>2024-01-11T13:52:54Z</time>
      </trkpt>
      <trkpt lat="47.28549" lon="-1.39964">
        <ele>5</ele>
        <time>2024-01-11T13:53:14Z</time>
      </trkpt>
      <trkpt lat="47.28564" lon="-1.39945">
        <ele>5</ele>
        <time>2024-01-11T13:53:30Z</time>
      </trkpt>
      <trkpt lat="47.28579" lon="-1.39924">
        <ele>5</ele>
        <time>2024-01-11T13:53:46Z</time>
      </trkpt>
      <trkpt lat="47.28593" lon="-1.39903">
        <ele>5</ele>
        <time>2024-01-11T13:54:02Z</time>
      </trkpt>
      <trkpt lat="47.28608" lon="-1.3988">
        <ele>5</ele>
        <time>2024-01-11T13:54:18Z</time>
      </trkpt>
      <trkpt lat="47.28622" lon="-1.39859">
        <ele>5</ele>
        <time>2024-01-11T13:54:34Z</time>
      </trkpt>
      <trkpt lat="47.28638" lon="-1.39838">
        <ele>5</ele>
        <time>2024-01-11T13:54:50Z</time>
      </trkpt>
      <trkpt lat="47.28653" lon="-1.39814">
        <ele>5.99</ele>
        <time>2024-01-11T13:55:06Z</time>
      </trkpt>
      <trkpt lat="47.28667" lon="-1.39789">
        <ele>5.3</ele>
        <time>2024-01-11T13:55:22Z</time>
      </trkpt>
      <trkpt lat="47.28683" lon="-1.39769">
        <ele>5</ele>
        <time>2024-01-11T13:55:38Z</time>
      </trkpt>
      <trkpt lat="47.287" lon="-1.39752">
        <ele>5</ele>
        <time>2024-01-11T13:55:54Z</time>
      </trkpt>
      <trkpt lat="47.28717" lon="-1.39732">
        <ele>5</ele>
        <time>2024-01-11T13:56:10Z</time>
      </trkpt>
      <trkpt lat="47.2873" lon="-1.39713">
        <ele>5</ele>
        <time>2024-01-11T13:56:26Z</time>
      </trkpt>
      <trkpt lat="47.2874" lon="-1.39691">
        <ele>5</ele>
        <time>2024-01-11T13:56:42Z</time>
      </trkpt>
      <trkpt lat="47.28756" lon="-1.39674">
        <ele>5</ele>
        <time>2024-01-11T13:56:54Z</time>
      </trkpt>
      <trkpt lat="47.28771" lon="-1.39656">
        <ele>5</ele>
        <time>2024-01-11T13:57:10Z</time>
      </trkpt>
      <trkpt lat="47.28785" lon="-1.39637">
        <ele>5</ele>
        <time>2024-01-11T13:57:26Z</time>
      </trkpt>
      <trkpt lat="47.288" lon="-1.39618">
        <ele>5</ele>
        <time>2024-01-11T13:57:42Z</time>
      </trkpt>
      <trkpt lat="47.28814" lon="-1.39599">
        <ele>5</ele>
        <time>2024-01-11T13:58:02Z</time>
      </trkpt>
      <trkpt lat="47.28828" lon="-1.39581">
        <ele>3.6</ele>
        <time>2024-01-11T13:58:14Z</time>
      </trkpt>
      <trkpt lat="47.28844" lon="-1.39559">
        <ele>3.99</ele>
        <time>2024-01-11T13:58:34Z</time>
      </trkpt>
      <trkpt lat="47.28863" lon="-1.39538">
        <ele>4</ele>
        <time>2024-01-11T13:58:50Z</time>
      </trkpt>
      <trkpt lat="47.28881" lon="-1.3952">
        <ele>4</ele>
        <time>2024-01-11T13:59:06Z</time>
      </trkpt>
      <trkpt lat="47.28895" lon="-1.39501">
        <ele>4</ele>
        <time>2024-01-11T13:59:23Z</time>
      </trkpt>
      <trkpt lat="47.28912" lon="-1.39484">
        <ele>4.99</ele>
        <time>2024-01-11T13:59:39Z</time>
      </trkpt>
      <trkpt lat="47.28931" lon="-1.39464">
        <ele>5.99</ele>
        <time>2024-01-11T13:59:55Z</time>
      </trkpt>
      <trkpt lat="47.28946" lon="-1.3944">
        <ele>6</ele>
        <time>2024-01-11T14:00:15Z</time>
      </trkpt>
      <trkpt lat="47.28963" lon="-1.39424">
        <ele>6</ele>
        <time>2024-01-11T14:00:31Z</time>
      </trkpt>
      <trkpt lat="47.28982" lon="-1.39401">
        <ele>6.97</ele>
        <time>2024-01-11T14:00:48Z</time>
      </trkpt>
      <trkpt lat="47.28998" lon="-1.39383">
        <ele>7</ele>
        <time>2024-01-11T14:01:04Z</time>
      </trkpt>
      <trkpt lat="47.29015" lon="-1.39365">
        <ele>6</ele>
        <time>2024-01-11T14:01:24Z</time>
      </trkpt>
      <trkpt lat="47.29032" lon="-1.39348">
        <ele>6</ele>
        <time>2024-01-11T14:01:40Z</time>
      </trkpt>
      <trkpt lat="47.29048" lon="-1.39327">
        <ele>5.09</ele>
        <time>2024-01-11T14:01:56Z</time>
      </trkpt>
      <trkpt lat="47.29065" lon="-1.39308">
        <ele>5</ele>
        <time>2024-01-11T14:02:12Z</time>
      </trkpt>
      <trkpt lat="47.2908" lon="-1.39289">
        <ele>5</ele>
        <time>2024-01-11T14:02:28Z</time>
      </trkpt>
      <trkpt lat="47.29095" lon="-1.39266">
        <ele>5.99</ele>
        <time>2024-01-11T14:02:44Z</time>
      </trkpt>
      <trkpt lat="47.29107" lon="-1.39242">
        <ele>6</ele>
        <time>2024-01-11T14:03:00Z</time>
      </trkpt>
      <trkpt lat="47.29124" lon="-1.39223">
        <ele>6</ele>
        <time>2024-01-11T14:03:16Z</time>
      </trkpt>
      <trkpt lat="47.29138" lon="-1.39203">
        <ele>6</ele>
        <time>2024-01-11T14:03:32Z</time>
      </trkpt>
      <trkpt lat="47.29153" lon="-1.39184">
        <ele>6</ele>
        <time>2024-01-11T14:03:48Z</time>
      </trkpt>
      <trkpt lat="47.29169" lon="-1.39164">
        <ele>6.7</ele>
        <time>2024-01-11T14:04:04Z</time>
      </trkpt>
      <trkpt lat="47.29187" lon="-1.39146">
        <ele>7</ele>
        <time>2024-01-11T14:04:20Z</time>
      </trkpt>
      <trkpt lat="47.29204" lon="-1.39127">
        <ele>7</ele>
        <time>2024-01-11T14:04:36Z</time>
      </trkpt>
      <trkpt lat="47.29218" lon="-1.39104">
        <ele>7</ele>
        <time>2024-01-11T14:04:52Z</time>
      </trkpt>
      <trkpt lat="47.29228" lon="-1.39079">
        <ele>6.3</ele>
        <time>2024-01-11T14:05:08Z</time>
      </trkpt>
      <trkpt lat="47.29235" lon="-1.39049">
        <ele>6</ele>
        <time>2024-01-11T14:05:24Z</time>
      </trkpt>
      <trkpt lat="47.29244" lon="-1.39021">
        <ele>6</ele>
        <time>2024-01-11T14:05:40Z</time>
      </trkpt>
      <trkpt lat="47.29252" lon="-1.38992">
        <ele>6.7</ele>
        <time>2024-01-11T14:05:56Z</time>
      </trkpt>
      <trkpt lat="47.2926" lon="-1.38962">
        <ele>7</ele>
        <time>2024-01-11T14:06:13Z</time>
      </trkpt>
      <trkpt lat="47.29268" lon="-1.38934">
        <ele>7</ele>
        <time>2024-01-11T14:06:29Z</time>
      </trkpt>
      <trkpt lat="47.29275" lon="-1.38906">
        <ele>7</ele>
        <time>2024-01-11T14:06:45Z</time>
      </trkpt>
      <trkpt lat="47.29284" lon="-1.38877">
        <ele>7</ele>
        <time>2024-01-11T14:07:01Z</time>
      </trkpt>
      <trkpt lat="47.29291" lon="-1.38846">
        <ele>7</ele>
        <time>2024-01-11T14:07:17Z</time>
      </trkpt>
      <trkpt lat="47.29299" lon="-1.38819">
        <ele>7</ele>
        <time>2024-01-11T14:07:33Z</time>
      </trkpt>
      <trkpt lat="47.29306" lon="-1.38793">
        <ele>7</ele>
        <time>2024-01-11T14:07:49Z</time>
      </trkpt>
      <trkpt lat="47.29313" lon="-1.38768">
        <ele>7</ele>
        <time>2024-01-11T14:08:05Z</time>
      </trkpt>
      <trkpt lat="47.29321" lon="-1.38737">
        <ele>6.09</ele>
        <time>2024-01-11T14:08:21Z</time>
      </trkpt>
      <trkpt lat="47.29345" lon="-1.38748">
        <ele>8.8</ele>
        <time>2024-01-11T14:09:04Z</time>
      </trkpt>
      <trkpt lat="47.29338" lon="-1.38774">
        <ele>9</ele>
        <time>2024-01-11T14:09:20Z</time>
      </trkpt>
      <trkpt lat="47.2933" lon="-1.388">
        <ele>7.6</ele>
        <time>2024-01-11T14:09:40Z</time>
      </trkpt>
      <trkpt lat="47.29327" lon="-1.38829">
        <ele>7</ele>
        <time>2024-01-11T14:09:56Z</time>
      </trkpt>
      <trkpt lat="47.2933" lon="-1.38857">
        <ele>7</ele>
        <time>2024-01-11T14:10:16Z</time>
      </trkpt>
      <trkpt lat="47.29322" lon="-1.38886">
        <ele>7</ele>
        <time>2024-01-11T14:10:32Z</time>
      </trkpt>
      <trkpt lat="47.2931" lon="-1.38907">
        <ele>7</ele>
        <time>2024-01-11T14:10:48Z</time>
      </trkpt>
      <trkpt lat="47.29312" lon="-1.38939">
        <ele>7</ele>
        <time>2024-01-11T14:11:33Z</time>
      </trkpt>
      <trkpt lat="47.29296" lon="-1.38957">
        <ele>7</ele>
        <time>2024-01-11T14:12:01Z</time>
      </trkpt>
      <trkpt lat="47.29279" lon="-1.38972">
        <ele>7</ele>
        <time>2024-01-11T14:12:53Z</time>
      </trkpt>
      <trkpt lat="47.29283" lon="-1.3894">
        <ele>7</ele>
        <time>2024-01-11T14:13:37Z</time>
      </trkpt>
    </trkseg>
  </trk>
</gpx>